
<gpx xmlns="http://www.topografix.com/GPX/1/1" xmlns:gpxx="http://www.garmin.com/xmlschemas/GpxExtensions/v3" xmlns:xsi="http://www.w3.org/2001/XMLSchema-instance" version="1.1" creator="Adze - https://getadze.com/" xsi:schemaLocation="http://www.topografix.com/GPX/1/1 http://www.topografix.com/GPX/1/1/gpx.xsd http://www.garmin.com/xmlschemas/GpxExtensions/v3 http://www.garmin.com/xmlschemas/GpxExtensionsv3.xsd">
    <metadata>
        <name>Untitled Document</name>
        <link href="http://www.garmin.com"></link>
        <time>2018-03-08T03:51:07.622Z</time>
    </metadata>
    <wpt lon="101.491445" lat="14.598914">
        <ele>370.000000</ele>
        <name>Paradis Resort</name>
        <cmt>27-MAR-09 16:10:58</cmt>
        <desc>27-MAR-09 16:10:58</desc>
        <sym>City Hall</sym>
        <extensions>
            <gpxx:WaypointExtension xmlns:gpxx="http://www.garmin.com/xmlschemas/GpxExtensions/v3">
                <gpxx:DisplayMode>SymbolOnly</gpxx:DisplayMode>
            </gpxx:WaypointExtension>
        </extensions>
    </wpt>
    <wpt lon="101.426744" lat="14.606038">
        <ele>341.000000</ele>
        <name>March 2009 - Sunday water</name>
        <cmt>29-MAR-09 11:23:54</cmt>
        <desc>29-MAR-09 11:23:54</desc>
        <sym>Drinking Water</sym>
        <extensions>
            <gpxx:WaypointExtension xmlns:gpxx="http://www.garmin.com/xmlschemas/GpxExtensions/v3">
                <gpxx:DisplayMode>SymbolOnly</gpxx:DisplayMode>
            </gpxx:WaypointExtension>
        </extensions>
    </wpt>
    <trk>
        <name>March 2009 - Sunday</name>
        <extensions>
            <gpxx:TrackExtension xmlns:gpxx="http://www.garmin.com/xmlschemas/GpxExtensions/v3">
                <gpxx:DisplayColor>Green</gpxx:DisplayColor>
            </gpxx:TrackExtension>
        </extensions>
        <trkseg>
            <trkpt lon="101.491681" lat="14.599080">
                <ele>367.841553</ele>
                <time>2009-03-29T03:31:54Z</time>
            </trkpt>
            <trkpt lon="101.491677" lat="14.599414">
                <ele>366.399536</ele>
                <time>2009-03-29T03:32:09Z</time>
            </trkpt>
            <trkpt lon="101.491727" lat="14.599839">
                <ele>366.880249</ele>
                <time>2009-03-29T03:32:20Z</time>
            </trkpt>
            <trkpt lon="101.491907" lat="14.600568">
                <ele>367.841553</ele>
                <time>2009-03-29T03:32:41Z</time>
            </trkpt>
            <trkpt lon="101.491972" lat="14.600790">
                <ele>367.360962</ele>
                <time>2009-03-29T03:32:49Z</time>
            </trkpt>
            <trkpt lon="101.492080" lat="14.600792">
                <ele>367.841553</ele>
                <time>2009-03-29T03:32:53Z</time>
            </trkpt>
            <trkpt lon="101.492649" lat="14.600663">
                <ele>370.244873</ele>
                <time>2009-03-29T03:33:12Z</time>
            </trkpt>
            <trkpt lon="101.493086" lat="14.600569">
                <ele>371.686890</ele>
                <time>2009-03-29T03:33:30Z</time>
            </trkpt>
            <trkpt lon="101.493669" lat="14.600429">
                <ele>372.648193</ele>
                <time>2009-03-29T03:33:49Z</time>
            </trkpt>
            <trkpt lon="101.494290" lat="14.600279">
                <ele>374.570801</ele>
                <time>2009-03-29T03:34:10Z</time>
            </trkpt>
            <trkpt lon="101.494829" lat="14.600137">
                <ele>376.974243</ele>
                <time>2009-03-29T03:34:29Z</time>
            </trkpt>
            <trkpt lon="101.495318" lat="14.599975">
                <ele>378.416138</ele>
                <time>2009-03-29T03:34:47Z</time>
            </trkpt>
            <trkpt lon="101.495224" lat="14.599515">
                <ele>379.377441</ele>
                <time>2009-03-29T03:35:02Z</time>
            </trkpt>
            <trkpt lon="101.495132" lat="14.598931">
                <ele>381.780640</ele>
                <time>2009-03-29T03:35:19Z</time>
            </trkpt>
            <trkpt lon="101.495403" lat="14.598588">
                <ele>385.145386</ele>
                <time>2009-03-29T03:35:36Z</time>
            </trkpt>
            <trkpt lon="101.495757" lat="14.598117">
                <ele>388.510010</ele>
                <time>2009-03-29T03:35:58Z</time>
            </trkpt>
            <trkpt lon="101.496091" lat="14.597758">
                <ele>391.874512</ele>
                <time>2009-03-29T03:36:16Z</time>
            </trkpt>
            <trkpt lon="101.496539" lat="14.597525">
                <ele>394.758545</ele>
                <time>2009-03-29T03:36:33Z</time>
            </trkpt>
            <trkpt lon="101.497077" lat="14.597498">
                <ele>397.642456</ele>
                <time>2009-03-29T03:36:51Z</time>
            </trkpt>
            <trkpt lon="101.497514" lat="14.597615">
                <ele>400.526489</ele>
                <time>2009-03-29T03:37:08Z</time>
            </trkpt>
            <trkpt lon="101.498058" lat="14.597602">
                <ele>401.968506</ele>
                <time>2009-03-29T03:37:26Z</time>
            </trkpt>
            <trkpt lon="101.498664" lat="14.597770">
                <ele>404.371704</ele>
                <time>2009-03-29T03:37:45Z</time>
            </trkpt>
            <trkpt lon="101.499305" lat="14.597667">
                <ele>405.333008</ele>
                <time>2009-03-29T03:38:03Z</time>
            </trkpt>
            <trkpt lon="101.500092" lat="14.597621">
                <ele>406.774902</ele>
                <time>2009-03-29T03:38:25Z</time>
            </trkpt>
            <trkpt lon="101.500909" lat="14.597562">
                <ele>408.217041</ele>
                <time>2009-03-29T03:38:46Z</time>
            </trkpt>
            <trkpt lon="101.500950" lat="14.597572">
                <ele>408.217041</ele>
                <time>2009-03-29T03:38:47Z</time>
            </trkpt>
            <trkpt lon="101.501672" lat="14.597691">
                <ele>409.178345</ele>
                <time>2009-03-29T03:39:07Z</time>
            </trkpt>
            <trkpt lon="101.502253" lat="14.597735">
                <ele>411.581665</ele>
                <time>2009-03-29T03:39:26Z</time>
            </trkpt>
            <trkpt lon="101.502718" lat="14.597744">
                <ele>413.023560</ele>
                <time>2009-03-29T03:39:43Z</time>
            </trkpt>
            <trkpt lon="101.502921" lat="14.597802">
                <ele>414.465454</ele>
                <time>2009-03-29T03:39:51Z</time>
            </trkpt>
            <trkpt lon="101.502879" lat="14.598196">
                <ele>415.426880</ele>
                <time>2009-03-29T03:40:07Z</time>
            </trkpt>
            <trkpt lon="101.502777" lat="14.598897">
                <ele>413.984863</ele>
                <time>2009-03-29T03:40:21Z</time>
            </trkpt>
            <trkpt lon="101.502742" lat="14.599971">
                <ele>410.620239</ele>
                <time>2009-03-29T03:40:41Z</time>
            </trkpt>
            <trkpt lon="101.502759" lat="14.600231">
                <ele>410.139648</ele>
                <time>2009-03-29T03:40:48Z</time>
            </trkpt>
            <trkpt lon="101.502855" lat="14.600280">
                <ele>409.659058</ele>
                <time>2009-03-29T03:40:52Z</time>
            </trkpt>
            <trkpt lon="101.503258" lat="14.600298">
                <ele>409.659058</ele>
                <time>2009-03-29T03:41:07Z</time>
            </trkpt>
            <trkpt lon="101.503822" lat="14.600316">
                <ele>409.659058</ele>
                <time>2009-03-29T03:41:23Z</time>
            </trkpt>
            <trkpt lon="101.504015" lat="14.600354">
                <ele>409.659058</ele>
                <time>2009-03-29T03:41:33Z</time>
            </trkpt>
            <trkpt lon="101.504002" lat="14.600423">
                <ele>409.178345</ele>
                <time>2009-03-29T03:41:37Z</time>
            </trkpt>
            <trkpt lon="101.503996" lat="14.600484">
                <ele>409.178345</ele>
                <time>2009-03-29T03:41:40Z</time>
            </trkpt>
            <trkpt lon="101.503936" lat="14.600603">
                <ele>409.178345</ele>
                <time>2009-03-29T03:41:48Z</time>
            </trkpt>
            <trkpt lon="101.503916" lat="14.600701">
                <ele>409.659058</ele>
                <time>2009-03-29T03:41:55Z</time>
            </trkpt>
            <trkpt lon="101.503859" lat="14.600907">
                <ele>409.659058</ele>
                <time>2009-03-29T03:42:09Z</time>
            </trkpt>
            <trkpt lon="101.503833" lat="14.600963">
                <ele>410.139648</ele>
                <time>2009-03-29T03:42:15Z</time>
            </trkpt>
            <trkpt lon="101.503838" lat="14.601005">
                <ele>410.620239</ele>
                <time>2009-03-29T03:42:19Z</time>
            </trkpt>
            <trkpt lon="101.503849" lat="14.601034">
                <ele>410.139648</ele>
                <time>2009-03-29T03:42:22Z</time>
            </trkpt>
            <trkpt lon="101.503875" lat="14.601140">
                <ele>410.139648</ele>
                <time>2009-03-29T03:42:29Z</time>
            </trkpt>
            <trkpt lon="101.503884" lat="14.601204">
                <ele>410.620239</ele>
                <time>2009-03-29T03:42:35Z</time>
            </trkpt>
            <trkpt lon="101.503973" lat="14.601415">
                <ele>411.100952</ele>
                <time>2009-03-29T03:42:49Z</time>
            </trkpt>
            <trkpt lon="101.504003" lat="14.601442">
                <ele>411.100952</ele>
                <time>2009-03-29T03:42:51Z</time>
            </trkpt>
            <trkpt lon="101.504093" lat="14.601709">
                <ele>410.139648</ele>
                <time>2009-03-29T03:43:03Z</time>
            </trkpt>
            <trkpt lon="101.504076" lat="14.601985">
                <ele>409.178345</ele>
                <time>2009-03-29T03:43:15Z</time>
            </trkpt>
            <trkpt lon="101.504081" lat="14.602066">
                <ele>408.697632</ele>
                <time>2009-03-29T03:43:21Z</time>
            </trkpt>
            <trkpt lon="101.504105" lat="14.602134">
                <ele>409.178345</ele>
                <time>2009-03-29T03:43:34Z</time>
            </trkpt>
            <trkpt lon="101.504117" lat="14.602169">
                <ele>409.659058</ele>
                <time>2009-03-29T03:43:42Z</time>
            </trkpt>
            <trkpt lon="101.504183" lat="14.602189">
                <ele>409.178345</ele>
                <time>2009-03-29T03:43:49Z</time>
            </trkpt>
            <trkpt lon="101.504180" lat="14.602268">
                <ele>408.217041</ele>
                <time>2009-03-29T03:43:55Z</time>
            </trkpt>
            <trkpt lon="101.504186" lat="14.602298">
                <ele>408.697632</ele>
                <time>2009-03-29T03:43:57Z</time>
            </trkpt>
            <trkpt lon="101.504177" lat="14.602334">
                <ele>408.217041</ele>
                <time>2009-03-29T03:44:00Z</time>
            </trkpt>
            <trkpt lon="101.504380" lat="14.602542">
                <ele>407.736328</ele>
                <time>2009-03-29T03:44:15Z</time>
            </trkpt>
            <trkpt lon="101.504389" lat="14.602551">
                <ele>407.255615</ele>
                <time>2009-03-29T03:44:16Z</time>
            </trkpt>
            <trkpt lon="101.504407" lat="14.602575">
                <ele>407.255615</ele>
                <time>2009-03-29T03:44:19Z</time>
            </trkpt>
            <trkpt lon="101.504500" lat="14.602612">
                <ele>406.774902</ele>
                <time>2009-03-29T03:44:25Z</time>
            </trkpt>
            <trkpt lon="101.504683" lat="14.602692">
                <ele>406.294311</ele>
                <time>2009-03-29T03:44:39Z</time>
            </trkpt>
            <trkpt lon="101.504682" lat="14.602701">
                <ele>406.294311</ele>
                <time>2009-03-29T03:44:40Z</time>
            </trkpt>
            <trkpt lon="101.504667" lat="14.602732">
                <ele>405.813721</ele>
                <time>2009-03-29T03:44:44Z</time>
            </trkpt>
            <trkpt lon="101.504540" lat="14.602992">
                <ele>404.371704</ele>
                <time>2009-03-29T03:45:00Z</time>
            </trkpt>
            <trkpt lon="101.504317" lat="14.603216">
                <ele>403.891113</ele>
                <time>2009-03-29T03:45:16Z</time>
            </trkpt>
            <trkpt lon="101.503981" lat="14.603319">
                <ele>403.891113</ele>
                <time>2009-03-29T03:45:30Z</time>
            </trkpt>
            <trkpt lon="101.503667" lat="14.603190">
                <ele>405.333008</ele>
                <time>2009-03-29T03:45:46Z</time>
            </trkpt>
            <trkpt lon="101.503395" lat="14.603072">
                <ele>405.333008</ele>
                <time>2009-03-29T03:46:00Z</time>
            </trkpt>
            <trkpt lon="101.503325" lat="14.603061">
                <ele>404.371704</ele>
                <time>2009-03-29T03:46:10Z</time>
            </trkpt>
            <trkpt lon="101.503296" lat="14.603097">
                <ele>407.736328</ele>
                <time>2009-03-29T03:46:23Z</time>
            </trkpt>
            <trkpt lon="101.503141" lat="14.603197">
                <ele>408.697632</ele>
                <time>2009-03-29T03:46:40Z</time>
            </trkpt>
            <trkpt lon="101.503086" lat="14.603229">
                <ele>409.659058</ele>
                <time>2009-03-29T03:46:56Z</time>
            </trkpt>
            <trkpt lon="101.503082" lat="14.603327">
                <ele>409.659058</ele>
                <time>2009-03-29T03:47:02Z</time>
            </trkpt>
            <trkpt lon="101.502902" lat="14.603724">
                <ele>409.659058</ele>
                <time>2009-03-29T03:47:19Z</time>
            </trkpt>
            <trkpt lon="101.502683" lat="14.604145">
                <ele>412.062256</ele>
                <time>2009-03-29T03:47:37Z</time>
            </trkpt>
            <trkpt lon="101.502733" lat="14.604671">
                <ele>412.062256</ele>
                <time>2009-03-29T03:47:57Z</time>
            </trkpt>
            <trkpt lon="101.502914" lat="14.605173">
                <ele>411.581665</ele>
                <time>2009-03-29T03:48:13Z</time>
            </trkpt>
            <trkpt lon="101.502862" lat="14.605266">
                <ele>412.062256</ele>
                <time>2009-03-29T03:48:24Z</time>
            </trkpt>
            <trkpt lon="101.502862" lat="14.605267">
                <ele>412.062256</ele>
                <time>2009-03-29T03:48:25Z</time>
            </trkpt>
            <trkpt lon="101.502676" lat="14.605383">
                <ele>410.620239</ele>
                <time>2009-03-29T03:48:38Z</time>
            </trkpt>
            <trkpt lon="101.502583" lat="14.605398">
                <ele>408.217041</ele>
                <time>2009-03-29T03:48:43Z</time>
            </trkpt>
            <trkpt lon="101.502523" lat="14.605404">
                <ele>406.774902</ele>
                <time>2009-03-29T03:48:50Z</time>
            </trkpt>
            <trkpt lon="101.502508" lat="14.605424">
                <ele>406.294311</ele>
                <time>2009-03-29T03:49:04Z</time>
            </trkpt>
            <trkpt lon="101.502419" lat="14.605433">
                <ele>405.333008</ele>
                <time>2009-03-29T03:49:09Z</time>
            </trkpt>
            <trkpt lon="101.502071" lat="14.605426">
                <ele>400.045898</ele>
                <time>2009-03-29T03:49:28Z</time>
            </trkpt>
            <trkpt lon="101.502030" lat="14.605427">
                <ele>400.045898</ele>
                <time>2009-03-29T03:49:48Z</time>
            </trkpt>
            <trkpt lon="101.501909" lat="14.605427">
                <ele>397.161743</ele>
                <time>2009-03-29T03:50:07Z</time>
            </trkpt>
            <trkpt lon="101.501778" lat="14.605419">
                <ele>393.797241</ele>
                <time>2009-03-29T03:50:23Z</time>
            </trkpt>
            <trkpt lon="101.501755" lat="14.605433">
                <ele>393.316528</ele>
                <time>2009-03-29T03:50:26Z</time>
            </trkpt>
            <trkpt lon="101.501578" lat="14.605493">
                <ele>390.432617</ele>
                <time>2009-03-29T03:50:59Z</time>
            </trkpt>
            <trkpt lon="101.501525" lat="14.605535">
                <ele>388.510010</ele>
                <time>2009-03-29T03:51:14Z</time>
            </trkpt>
            <trkpt lon="101.501405" lat="14.605538">
                <ele>386.106690</ele>
                <time>2009-03-29T03:51:40Z</time>
            </trkpt>
            <trkpt lon="101.501255" lat="14.605565">
                <ele>384.664795</ele>
                <time>2009-03-29T03:51:57Z</time>
            </trkpt>
            <trkpt lon="101.501200" lat="14.605589">
                <ele>383.703247</ele>
                <time>2009-03-29T03:52:03Z</time>
            </trkpt>
            <trkpt lon="101.501024" lat="14.605641">
                <ele>381.300049</ele>
                <time>2009-03-29T03:52:19Z</time>
            </trkpt>
            <trkpt lon="101.500601" lat="14.605563">
                <ele>376.974243</ele>
                <time>2009-03-29T03:52:32Z</time>
            </trkpt>
            <trkpt lon="101.500518" lat="14.605616">
                <ele>375.051514</ele>
                <time>2009-03-29T03:52:34Z</time>
            </trkpt>
            <trkpt lon="101.500246" lat="14.605705">
                <ele>371.206299</ele>
                <time>2009-03-29T03:52:38Z</time>
            </trkpt>
            <trkpt lon="101.498925" lat="14.606067">
                <ele>366.880249</ele>
                <time>2009-03-29T03:52:55Z</time>
            </trkpt>
            <trkpt lon="101.497907" lat="14.606332">
                <ele>364.476929</ele>
                <time>2009-03-29T03:53:11Z</time>
            </trkpt>
            <trkpt lon="101.496472" lat="14.606662">
                <ele>361.593140</ele>
                <time>2009-03-29T03:53:33Z</time>
            </trkpt>
            <trkpt lon="101.494858" lat="14.607023">
                <ele>358.708984</ele>
                <time>2009-03-29T03:53:56Z</time>
            </trkpt>
            <trkpt lon="101.492896" lat="14.607495">
                <ele>354.383179</ele>
                <time>2009-03-29T03:54:22Z</time>
            </trkpt>
            <trkpt lon="101.491362" lat="14.607876">
                <ele>351.018433</ele>
                <time>2009-03-29T03:54:42Z</time>
            </trkpt>
            <trkpt lon="101.489705" lat="14.608275">
                <ele>349.095825</ele>
                <time>2009-03-29T03:55:05Z</time>
            </trkpt>
            <trkpt lon="101.488324" lat="14.608616">
                <ele>347.653931</ele>
                <time>2009-03-29T03:55:24Z</time>
            </trkpt>
            <trkpt lon="101.486908" lat="14.608971">
                <ele>347.653931</ele>
                <time>2009-03-29T03:55:43Z</time>
            </trkpt>
            <trkpt lon="101.485148" lat="14.609392">
                <ele>345.250610</ele>
                <time>2009-03-29T03:56:07Z</time>
            </trkpt>
            <trkpt lon="101.483554" lat="14.609780">
                <ele>343.808594</ele>
                <time>2009-03-29T03:56:29Z</time>
            </trkpt>
            <trkpt lon="101.481837" lat="14.610177">
                <ele>341.405273</ele>
                <time>2009-03-29T03:56:52Z</time>
            </trkpt>
            <trkpt lon="101.480496" lat="14.610487">
                <ele>339.963379</ele>
                <time>2009-03-29T03:57:11Z</time>
            </trkpt>
            <trkpt lon="101.478974" lat="14.610860">
                <ele>338.521484</ele>
                <time>2009-03-29T03:57:32Z</time>
            </trkpt>
            <trkpt lon="101.477555" lat="14.611223">
                <ele>336.118164</ele>
                <time>2009-03-29T03:57:53Z</time>
            </trkpt>
            <trkpt lon="101.476338" lat="14.611498">
                <ele>334.676148</ele>
                <time>2009-03-29T03:58:10Z</time>
            </trkpt>
            <trkpt lon="101.474794" lat="14.611848">
                <ele>333.234131</ele>
                <time>2009-03-29T03:58:33Z</time>
            </trkpt>
            <trkpt lon="101.473593" lat="14.612125">
                <ele>331.792114</ele>
                <time>2009-03-29T03:58:51Z</time>
            </trkpt>
            <trkpt lon="101.472180" lat="14.612479">
                <ele>331.311523</ele>
                <time>2009-03-29T03:59:12Z</time>
            </trkpt>
            <trkpt lon="101.472142" lat="14.612481">
                <ele>331.311523</ele>
                <time>2009-03-29T03:59:13Z</time>
            </trkpt>
            <trkpt lon="101.472010" lat="14.612343">
                <ele>331.311523</ele>
                <time>2009-03-29T03:59:18Z</time>
            </trkpt>
            <trkpt lon="101.471661" lat="14.611358">
                <ele>330.350220</ele>
                <time>2009-03-29T03:59:39Z</time>
            </trkpt>
            <trkpt lon="101.471459" lat="14.610785">
                <ele>329.869507</ele>
                <time>2009-03-29T03:59:51Z</time>
            </trkpt>
            <trkpt lon="101.471221" lat="14.610683">
                <ele>329.869507</ele>
                <time>2009-03-29T03:59:57Z</time>
            </trkpt>
            <trkpt lon="101.471127" lat="14.610696">
                <ele>329.869507</ele>
                <time>2009-03-29T03:59:59Z</time>
            </trkpt>
            <trkpt lon="101.470919" lat="14.610532">
                <ele>330.350220</ele>
                <time>2009-03-29T04:00:05Z</time>
            </trkpt>
            <trkpt lon="101.470500" lat="14.609682">
                <ele>330.830933</ele>
                <time>2009-03-29T04:00:25Z</time>
            </trkpt>
            <trkpt lon="101.469873" lat="14.608577">
                <ele>330.830933</ele>
                <time>2009-03-29T04:00:50Z</time>
            </trkpt>
            <trkpt lon="101.469680" lat="14.608292">
                <ele>330.830933</ele>
                <time>2009-03-29T04:00:57Z</time>
            </trkpt>
            <trkpt lon="101.469446" lat="14.608278">
                <ele>330.830933</ele>
                <time>2009-03-29T04:01:02Z</time>
            </trkpt>
            <trkpt lon="101.469290" lat="14.608331">
                <ele>330.830933</ele>
                <time>2009-03-29T04:01:05Z</time>
            </trkpt>
            <trkpt lon="101.468598" lat="14.608356">
                <ele>331.792114</ele>
                <time>2009-03-29T04:01:18Z</time>
            </trkpt>
            <trkpt lon="101.468311" lat="14.608066">
                <ele>332.272827</ele>
                <time>2009-03-29T04:01:27Z</time>
            </trkpt>
            <trkpt lon="101.468333" lat="14.607615">
                <ele>331.792114</ele>
                <time>2009-03-29T04:01:36Z</time>
            </trkpt>
            <trkpt lon="101.468181" lat="14.607356">
                <ele>331.311523</ele>
                <time>2009-03-29T04:01:42Z</time>
            </trkpt>
            <trkpt lon="101.467504" lat="14.606893">
                <ele>329.869507</ele>
                <time>2009-03-29T04:01:59Z</time>
            </trkpt>
            <trkpt lon="101.467253" lat="14.606703">
                <ele>329.869507</ele>
                <time>2009-03-29T04:02:05Z</time>
            </trkpt>
            <trkpt lon="101.466947" lat="14.606649">
                <ele>330.350220</ele>
                <time>2009-03-29T04:02:11Z</time>
            </trkpt>
            <trkpt lon="101.466673" lat="14.606695">
                <ele>330.350220</ele>
                <time>2009-03-29T04:02:16Z</time>
            </trkpt>
            <trkpt lon="101.466089" lat="14.606689">
                <ele>329.869507</ele>
                <time>2009-03-29T04:02:27Z</time>
            </trkpt>
            <trkpt lon="101.465891" lat="14.606735">
                <ele>329.388916</ele>
                <time>2009-03-29T04:02:31Z</time>
            </trkpt>
            <trkpt lon="101.464764" lat="14.606729">
                <ele>330.830933</ele>
                <time>2009-03-29T04:02:49Z</time>
            </trkpt>
            <trkpt lon="101.463790" lat="14.606504">
                <ele>330.350220</ele>
                <time>2009-03-29T04:03:05Z</time>
            </trkpt>
            <trkpt lon="101.462428" lat="14.606106">
                <ele>329.869507</ele>
                <time>2009-03-29T04:03:28Z</time>
            </trkpt>
            <trkpt lon="101.462368" lat="14.606086">
                <ele>329.869507</ele>
                <time>2009-03-29T04:03:29Z</time>
            </trkpt>
            <trkpt lon="101.461391" lat="14.606012">
                <ele>328.427612</ele>
                <time>2009-03-29T04:03:45Z</time>
            </trkpt>
            <trkpt lon="101.460388" lat="14.606299">
                <ele>328.427612</ele>
                <time>2009-03-29T04:04:02Z</time>
            </trkpt>
            <trkpt lon="101.459155" lat="14.606612">
                <ele>327.466186</ele>
                <time>2009-03-29T04:04:22Z</time>
            </trkpt>
            <trkpt lon="101.457617" lat="14.606877">
                <ele>327.466186</ele>
                <time>2009-03-29T04:04:46Z</time>
            </trkpt>
            <trkpt lon="101.456257" lat="14.607101">
                <ele>327.466186</ele>
                <time>2009-03-29T04:05:08Z</time>
            </trkpt>
            <trkpt lon="101.456214" lat="14.607105">
                <ele>327.466186</ele>
                <time>2009-03-29T04:05:09Z</time>
            </trkpt>
            <trkpt lon="101.456150" lat="14.606975">
                <ele>326.985596</ele>
                <time>2009-03-29T04:05:14Z</time>
            </trkpt>
            <trkpt lon="101.456446" lat="14.606069">
                <ele>326.985596</ele>
                <time>2009-03-29T04:05:33Z</time>
            </trkpt>
            <trkpt lon="101.456610" lat="14.605545">
                <ele>326.504883</ele>
                <time>2009-03-29T04:05:43Z</time>
            </trkpt>
            <trkpt lon="101.456690" lat="14.605419">
                <ele>326.504883</ele>
                <time>2009-03-29T04:05:46Z</time>
            </trkpt>
            <trkpt lon="101.456797" lat="14.605245">
                <ele>326.504883</ele>
                <time>2009-03-29T04:05:50Z</time>
            </trkpt>
            <trkpt lon="101.456851" lat="14.604730">
                <ele>326.504883</ele>
                <time>2009-03-29T04:05:59Z</time>
            </trkpt>
            <trkpt lon="101.457083" lat="14.604447">
                <ele>326.504883</ele>
                <time>2009-03-29T04:06:07Z</time>
            </trkpt>
            <trkpt lon="101.457704" lat="14.604185">
                <ele>326.504883</ele>
                <time>2009-03-29T04:06:24Z</time>
            </trkpt>
            <trkpt lon="101.457750" lat="14.604022">
                <ele>327.466186</ele>
                <time>2009-03-29T04:06:31Z</time>
            </trkpt>
            <trkpt lon="101.458050" lat="14.603787">
                <ele>326.504883</ele>
                <time>2009-03-29T04:06:42Z</time>
            </trkpt>
            <trkpt lon="101.458647" lat="14.603379">
                <ele>327.946777</ele>
                <time>2009-03-29T04:06:59Z</time>
            </trkpt>
            <trkpt lon="101.458789" lat="14.603236">
                <ele>328.427612</ele>
                <time>2009-03-29T04:07:03Z</time>
            </trkpt>
            <trkpt lon="101.458998" lat="14.603092">
                <ele>328.427612</ele>
                <time>2009-03-29T04:07:08Z</time>
            </trkpt>
            <trkpt lon="101.459102" lat="14.603008">
                <ele>328.427612</ele>
                <time>2009-03-29T04:07:11Z</time>
            </trkpt>
            <trkpt lon="101.459499" lat="14.602688">
                <ele>328.427612</ele>
                <time>2009-03-29T04:07:22Z</time>
            </trkpt>
            <trkpt lon="101.459573" lat="14.602642">
                <ele>328.427612</ele>
                <time>2009-03-29T04:07:24Z</time>
            </trkpt>
            <trkpt lon="101.459739" lat="14.602591">
                <ele>328.908325</ele>
                <time>2009-03-29T04:07:28Z</time>
            </trkpt>
            <trkpt lon="101.459982" lat="14.602517">
                <ele>329.388916</ele>
                <time>2009-03-29T04:07:34Z</time>
            </trkpt>
            <trkpt lon="101.460063" lat="14.602471">
                <ele>329.388916</ele>
                <time>2009-03-29T04:07:36Z</time>
            </trkpt>
            <trkpt lon="101.460150" lat="14.602436">
                <ele>329.388916</ele>
                <time>2009-03-29T04:07:38Z</time>
            </trkpt>
            <trkpt lon="101.460298" lat="14.602343">
                <ele>329.388916</ele>
                <time>2009-03-29T04:07:42Z</time>
            </trkpt>
            <trkpt lon="101.460638" lat="14.601957">
                <ele>329.869507</ele>
                <time>2009-03-29T04:07:57Z</time>
            </trkpt>
            <trkpt lon="101.460668" lat="14.601896">
                <ele>329.388916</ele>
                <time>2009-03-29T04:08:00Z</time>
            </trkpt>
            <trkpt lon="101.460775" lat="14.601803">
                <ele>328.908325</ele>
                <time>2009-03-29T04:08:05Z</time>
            </trkpt>
            <trkpt lon="101.461089" lat="14.601645">
                <ele>329.869507</ele>
                <time>2009-03-29T04:08:16Z</time>
            </trkpt>
            <trkpt lon="101.461759" lat="14.601465">
                <ele>329.869507</ele>
                <time>2009-03-29T04:08:33Z</time>
            </trkpt>
            <trkpt lon="101.462466" lat="14.601348">
                <ele>329.869507</ele>
                <time>2009-03-29T04:08:52Z</time>
            </trkpt>
            <trkpt lon="101.462581" lat="14.601343">
                <ele>329.869507</ele>
                <time>2009-03-29T04:09:07Z</time>
            </trkpt>
            <trkpt lon="101.462492" lat="14.601320">
                <ele>329.869507</ele>
                <time>2009-03-29T04:09:12Z</time>
            </trkpt>
            <trkpt lon="101.461832" lat="14.601405">
                <ele>328.908325</ele>
                <time>2009-03-29T04:09:34Z</time>
            </trkpt>
            <trkpt lon="101.461213" lat="14.601562">
                <ele>328.908325</ele>
                <time>2009-03-29T04:09:51Z</time>
            </trkpt>
            <trkpt lon="101.460560" lat="14.601716">
                <ele>327.946777</ele>
                <time>2009-03-29T04:10:05Z</time>
            </trkpt>
            <trkpt lon="101.460369" lat="14.601739">
                <ele>327.946777</ele>
                <time>2009-03-29T04:10:09Z</time>
            </trkpt>
            <trkpt lon="101.459398" lat="14.601600">
                <ele>328.427612</ele>
                <time>2009-03-29T04:10:28Z</time>
            </trkpt>
            <trkpt lon="101.458403" lat="14.601440">
                <ele>328.908325</ele>
                <time>2009-03-29T04:10:46Z</time>
            </trkpt>
            <trkpt lon="101.458194" lat="14.601399">
                <ele>328.908325</ele>
                <time>2009-03-29T04:10:50Z</time>
            </trkpt>
            <trkpt lon="101.457999" lat="14.601313">
                <ele>328.908325</ele>
                <time>2009-03-29T04:10:54Z</time>
            </trkpt>
            <trkpt lon="101.457407" lat="14.600711">
                <ele>329.388916</ele>
                <time>2009-03-29T04:11:10Z</time>
            </trkpt>
            <trkpt lon="101.456721" lat="14.599856">
                <ele>329.869507</ele>
                <time>2009-03-29T04:11:30Z</time>
            </trkpt>
            <trkpt lon="101.456231" lat="14.599325">
                <ele>329.869507</ele>
                <time>2009-03-29T04:11:48Z</time>
            </trkpt>
            <trkpt lon="101.456020" lat="14.599380">
                <ele>329.388916</ele>
                <time>2009-03-29T04:12:00Z</time>
            </trkpt>
            <trkpt lon="101.455981" lat="14.599394">
                <ele>328.908325</ele>
                <time>2009-03-29T04:12:07Z</time>
            </trkpt>
            <trkpt lon="101.455943" lat="14.599385">
                <ele>328.908325</ele>
                <time>2009-03-29T04:12:11Z</time>
            </trkpt>
            <trkpt lon="101.455840" lat="14.599415">
                <ele>328.908325</ele>
                <time>2009-03-29T04:12:16Z</time>
            </trkpt>
            <trkpt lon="101.455224" lat="14.599552">
                <ele>329.388916</ele>
                <time>2009-03-29T04:12:31Z</time>
            </trkpt>
            <trkpt lon="101.455174" lat="14.599564">
                <ele>328.908325</ele>
                <time>2009-03-29T04:12:32Z</time>
            </trkpt>
            <trkpt lon="101.454250" lat="14.599742">
                <ele>329.388916</ele>
                <time>2009-03-29T04:12:50Z</time>
            </trkpt>
            <trkpt lon="101.453501" lat="14.599860">
                <ele>329.388916</ele>
                <time>2009-03-29T04:13:05Z</time>
            </trkpt>
            <trkpt lon="101.452477" lat="14.600069">
                <ele>329.388916</ele>
                <time>2009-03-29T04:13:26Z</time>
            </trkpt>
            <trkpt lon="101.451450" lat="14.600243">
                <ele>329.388916</ele>
                <time>2009-03-29T04:13:47Z</time>
            </trkpt>
            <trkpt lon="101.450506" lat="14.600412">
                <ele>328.908325</ele>
                <time>2009-03-29T04:14:07Z</time>
            </trkpt>
            <trkpt lon="101.449415" lat="14.600612">
                <ele>328.908325</ele>
                <time>2009-03-29T04:14:29Z</time>
            </trkpt>
            <trkpt lon="101.448236" lat="14.600828">
                <ele>328.427612</ele>
                <time>2009-03-29T04:14:52Z</time>
            </trkpt>
            <trkpt lon="101.447453" lat="14.600973">
                <ele>328.427612</ele>
                <time>2009-03-29T04:15:10Z</time>
            </trkpt>
            <trkpt lon="101.446429" lat="14.601145">
                <ele>326.985596</ele>
                <time>2009-03-29T04:15:31Z</time>
            </trkpt>
            <trkpt lon="101.445362" lat="14.601347">
                <ele>326.024170</ele>
                <time>2009-03-29T04:15:51Z</time>
            </trkpt>
            <trkpt lon="101.444499" lat="14.601477">
                <ele>326.504883</ele>
                <time>2009-03-29T04:16:11Z</time>
            </trkpt>
            <trkpt lon="101.444180" lat="14.601693">
                <ele>326.985596</ele>
                <time>2009-03-29T04:16:24Z</time>
            </trkpt>
            <trkpt lon="101.444095" lat="14.602452">
                <ele>326.024170</ele>
                <time>2009-03-29T04:16:41Z</time>
            </trkpt>
            <trkpt lon="101.444133" lat="14.603542">
                <ele>325.543579</ele>
                <time>2009-03-29T04:17:02Z</time>
            </trkpt>
            <trkpt lon="101.444404" lat="14.604742">
                <ele>325.062988</ele>
                <time>2009-03-29T04:17:23Z</time>
            </trkpt>
            <trkpt lon="101.444512" lat="14.605159">
                <ele>324.582275</ele>
                <time>2009-03-29T04:17:31Z</time>
            </trkpt>
            <trkpt lon="101.444321" lat="14.605306">
                <ele>324.582275</ele>
                <time>2009-03-29T04:17:37Z</time>
            </trkpt>
            <trkpt lon="101.443738" lat="14.605299">
                <ele>325.062988</ele>
                <time>2009-03-29T04:17:48Z</time>
            </trkpt>
            <trkpt lon="101.442921" lat="14.605579">
                <ele>324.101562</ele>
                <time>2009-03-29T04:18:04Z</time>
            </trkpt>
            <trkpt lon="101.441910" lat="14.605700">
                <ele>324.582275</ele>
                <time>2009-03-29T04:18:22Z</time>
            </trkpt>
            <trkpt lon="101.440773" lat="14.605773">
                <ele>325.543579</ele>
                <time>2009-03-29T04:18:43Z</time>
            </trkpt>
            <trkpt lon="101.439850" lat="14.605628">
                <ele>326.024170</ele>
                <time>2009-03-29T04:19:02Z</time>
            </trkpt>
            <trkpt lon="101.439808" lat="14.605616">
                <ele>326.024170</ele>
                <time>2009-03-29T04:19:03Z</time>
            </trkpt>
            <trkpt lon="101.438970" lat="14.605468">
                <ele>326.985596</ele>
                <time>2009-03-29T04:19:21Z</time>
            </trkpt>
            <trkpt lon="101.437857" lat="14.605486">
                <ele>328.908325</ele>
                <time>2009-03-29T04:19:43Z</time>
            </trkpt>
            <trkpt lon="101.436634" lat="14.605528">
                <ele>330.350220</ele>
                <time>2009-03-29T04:20:07Z</time>
            </trkpt>
            <trkpt lon="101.435707" lat="14.605469">
                <ele>331.311523</ele>
                <time>2009-03-29T04:20:25Z</time>
            </trkpt>
            <trkpt lon="101.434468" lat="14.605338">
                <ele>332.272827</ele>
                <time>2009-03-29T04:20:48Z</time>
            </trkpt>
            <trkpt lon="101.433619" lat="14.605417">
                <ele>332.753540</ele>
                <time>2009-03-29T04:21:04Z</time>
            </trkpt>
            <trkpt lon="101.432799" lat="14.605456">
                <ele>334.676148</ele>
                <time>2009-03-29T04:21:20Z</time>
            </trkpt>
            <trkpt lon="101.431690" lat="14.605410">
                <ele>337.560059</ele>
                <time>2009-03-29T04:21:42Z</time>
            </trkpt>
            <trkpt lon="101.430746" lat="14.605368">
                <ele>337.560059</ele>
                <time>2009-03-29T04:22:01Z</time>
            </trkpt>
            <trkpt lon="101.430513" lat="14.605367">
                <ele>338.040772</ele>
                <time>2009-03-29T04:22:06Z</time>
            </trkpt>
            <trkpt lon="101.429611" lat="14.605278">
                <ele>339.482666</ele>
                <time>2009-03-29T04:22:25Z</time>
            </trkpt>
            <trkpt lon="101.428669" lat="14.605170">
                <ele>338.040772</ele>
                <time>2009-03-29T04:22:42Z</time>
            </trkpt>
            <trkpt lon="101.428107" lat="14.605124">
                <ele>338.521484</ele>
                <time>2009-03-29T04:22:53Z</time>
            </trkpt>
            <trkpt lon="101.427374" lat="14.605391">
                <ele>338.521484</ele>
                <time>2009-03-29T04:23:09Z</time>
            </trkpt>
            <trkpt lon="101.426814" lat="14.605756">
                <ele>338.521484</ele>
                <time>2009-03-29T04:23:24Z</time>
            </trkpt>
            <trkpt lon="101.426689" lat="14.605955">
                <ele>338.521484</ele>
                <time>2009-03-29T04:23:30Z</time>
            </trkpt>
            <trkpt lon="101.426736" lat="14.606031">
                <ele>338.521484</ele>
                <time>2009-03-29T04:23:42Z</time>
            </trkpt>
            <trkpt lon="101.426742" lat="14.606039">
                <ele>341.885986</ele>
                <time>2009-03-29T04:24:00Z</time>
            </trkpt>
            <trkpt lon="101.426747" lat="14.606042">
                <ele>343.327881</ele>
                <time>2009-03-29T04:27:47Z</time>
            </trkpt>
            <trkpt lon="101.426752" lat="14.606059">
                <ele>342.847290</ele>
                <time>2009-03-29T04:28:04Z</time>
            </trkpt>
            <trkpt lon="101.426735" lat="14.606029">
                <ele>344.770019</ele>
                <time>2009-03-29T04:38:22Z</time>
            </trkpt>
            <trkpt lon="101.426729" lat="14.606023">
                <ele>344.770019</ele>
                <time>2009-03-29T04:38:23Z</time>
            </trkpt>
            <trkpt lon="101.426677" lat="14.606012">
                <ele>343.808594</ele>
                <time>2009-03-29T04:38:27Z</time>
            </trkpt>
            <trkpt lon="101.426461" lat="14.606028">
                <ele>343.327881</ele>
                <time>2009-03-29T04:38:37Z</time>
            </trkpt>
            <trkpt lon="101.426172" lat="14.606205">
                <ele>341.885986</ele>
                <time>2009-03-29T04:38:48Z</time>
            </trkpt>
            <trkpt lon="101.425755" lat="14.605912">
                <ele>341.885986</ele>
                <time>2009-03-29T04:39:04Z</time>
            </trkpt>
            <trkpt lon="101.425732" lat="14.605908">
                <ele>341.885986</ele>
                <time>2009-03-29T04:39:05Z</time>
            </trkpt>
            <trkpt lon="101.425650" lat="14.605952">
                <ele>341.885986</ele>
                <time>2009-03-29T04:39:09Z</time>
            </trkpt>
            <trkpt lon="101.425510" lat="14.606041">
                <ele>341.885986</ele>
                <time>2009-03-29T04:39:16Z</time>
            </trkpt>
            <trkpt lon="101.425408" lat="14.606061">
                <ele>342.847290</ele>
                <time>2009-03-29T04:39:28Z</time>
            </trkpt>
            <trkpt lon="101.425425" lat="14.606070">
                <ele>343.327881</ele>
                <time>2009-03-29T04:39:39Z</time>
            </trkpt>
            <trkpt lon="101.425546" lat="14.605998">
                <ele>341.885986</ele>
                <time>2009-03-29T04:39:47Z</time>
            </trkpt>
            <trkpt lon="101.425578" lat="14.605892">
                <ele>341.885986</ele>
                <time>2009-03-29T04:39:52Z</time>
            </trkpt>
            <trkpt lon="101.425658" lat="14.605831">
                <ele>341.885986</ele>
                <time>2009-03-29T04:39:56Z</time>
            </trkpt>
            <trkpt lon="101.425639" lat="14.605747">
                <ele>341.405273</ele>
                <time>2009-03-29T04:40:00Z</time>
            </trkpt>
            <trkpt lon="101.425617" lat="14.605731">
                <ele>340.924683</ele>
                <time>2009-03-29T04:40:11Z</time>
            </trkpt>
            <trkpt lon="101.425740" lat="14.605728">
                <ele>340.924683</ele>
                <time>2009-03-29T04:40:19Z</time>
            </trkpt>
            <trkpt lon="101.425791" lat="14.605642">
                <ele>340.924683</ele>
                <time>2009-03-29T04:40:24Z</time>
            </trkpt>
            <trkpt lon="101.425506" lat="14.605350">
                <ele>342.366699</ele>
                <time>2009-03-29T04:40:39Z</time>
            </trkpt>
            <trkpt lon="101.425249" lat="14.604956">
                <ele>342.847290</ele>
                <time>2009-03-29T04:40:55Z</time>
            </trkpt>
            <trkpt lon="101.424863" lat="14.604557">
                <ele>344.770019</ele>
                <time>2009-03-29T04:41:12Z</time>
            </trkpt>
            <trkpt lon="101.424452" lat="14.604215">
                <ele>345.731323</ele>
                <time>2009-03-29T04:41:30Z</time>
            </trkpt>
            <trkpt lon="101.424060" lat="14.604052">
                <ele>348.134644</ele>
                <time>2009-03-29T04:41:44Z</time>
            </trkpt>
            <trkpt lon="101.423706" lat="14.603926">
                <ele>351.979858</ele>
                <time>2009-03-29T04:42:03Z</time>
            </trkpt>
            <trkpt lon="101.423690" lat="14.603918">
                <ele>351.979858</ele>
                <time>2009-03-29T04:42:04Z</time>
            </trkpt>
            <trkpt lon="101.423711" lat="14.603811">
                <ele>351.018433</ele>
                <time>2009-03-29T04:42:17Z</time>
            </trkpt>
            <trkpt lon="101.423772" lat="14.603514">
                <ele>350.057251</ele>
                <time>2009-03-29T04:42:34Z</time>
            </trkpt>
            <trkpt lon="101.423800" lat="14.603361">
                <ele>349.576538</ele>
                <time>2009-03-29T04:42:45Z</time>
            </trkpt>
            <trkpt lon="101.423810" lat="14.603301">
                <ele>350.057251</ele>
                <time>2009-03-29T04:42:57Z</time>
            </trkpt>
            <trkpt lon="101.423851" lat="14.603142">
                <ele>350.537842</ele>
                <time>2009-03-29T04:43:13Z</time>
            </trkpt>
            <trkpt lon="101.423894" lat="14.602935">
                <ele>352.460571</ele>
                <time>2009-03-29T04:43:33Z</time>
            </trkpt>
            <trkpt lon="101.423956" lat="14.602751">
                <ele>354.383179</ele>
                <time>2009-03-29T04:43:51Z</time>
            </trkpt>
            <trkpt lon="101.424000" lat="14.602592">
                <ele>355.825195</ele>
                <time>2009-03-29T04:44:10Z</time>
            </trkpt>
            <trkpt lon="101.424035" lat="14.602472">
                <ele>356.786377</ele>
                <time>2009-03-29T04:44:26Z</time>
            </trkpt>
            <trkpt lon="101.424059" lat="14.602363">
                <ele>356.786377</ele>
                <time>2009-03-29T04:44:43Z</time>
            </trkpt>
            <trkpt lon="101.424097" lat="14.602248">
                <ele>356.786377</ele>
                <time>2009-03-29T04:44:56Z</time>
            </trkpt>
            <trkpt lon="101.424096" lat="14.602164">
                <ele>356.305786</ele>
                <time>2009-03-29T04:45:07Z</time>
            </trkpt>
            <trkpt lon="101.424017" lat="14.602092">
                <ele>357.267090</ele>
                <time>2009-03-29T04:45:24Z</time>
            </trkpt>
            <trkpt lon="101.424008" lat="14.602083">
                <ele>357.747803</ele>
                <time>2009-03-29T04:45:39Z</time>
            </trkpt>
            <trkpt lon="101.423984" lat="14.602082">
                <ele>357.747803</ele>
                <time>2009-03-29T04:45:42Z</time>
            </trkpt>
            <trkpt lon="101.423919" lat="14.602067">
                <ele>357.747803</ele>
                <time>2009-03-29T04:45:47Z</time>
            </trkpt>
            <trkpt lon="101.423839" lat="14.602028">
                <ele>357.747803</ele>
                <time>2009-03-29T04:45:55Z</time>
            </trkpt>
            <trkpt lon="101.423712" lat="14.601991">
                <ele>358.228394</ele>
                <time>2009-03-29T04:46:11Z</time>
            </trkpt>
            <trkpt lon="101.423525" lat="14.601914">
                <ele>358.708984</ele>
                <time>2009-03-29T04:46:29Z</time>
            </trkpt>
            <trkpt lon="101.423488" lat="14.601880">
                <ele>358.708984</ele>
                <time>2009-03-29T04:46:34Z</time>
            </trkpt>
            <trkpt lon="101.423284" lat="14.601797">
                <ele>359.189697</ele>
                <time>2009-03-29T04:46:49Z</time>
            </trkpt>
            <trkpt lon="101.422915" lat="14.601637">
                <ele>359.670410</ele>
                <time>2009-03-29T04:47:08Z</time>
            </trkpt>
            <trkpt lon="101.422572" lat="14.601567">
                <ele>360.631714</ele>
                <time>2009-03-29T04:47:23Z</time>
            </trkpt>
            <trkpt lon="101.422118" lat="14.601480">
                <ele>363.996338</ele>
                <time>2009-03-29T04:47:42Z</time>
            </trkpt>
            <trkpt lon="101.421774" lat="14.601450">
                <ele>365.918945</ele>
                <time>2009-03-29T04:47:59Z</time>
            </trkpt>
            <trkpt lon="101.421522" lat="14.601428">
                <ele>367.360962</ele>
                <time>2009-03-29T04:48:14Z</time>
            </trkpt>
            <trkpt lon="101.421189" lat="14.601425">
                <ele>369.283691</ele>
                <time>2009-03-29T04:48:30Z</time>
            </trkpt>
            <trkpt lon="101.420681" lat="14.601420">
                <ele>372.167481</ele>
                <time>2009-03-29T04:48:52Z</time>
            </trkpt>
            <trkpt lon="101.420386" lat="14.601419">
                <ele>373.609497</ele>
                <time>2009-03-29T04:49:09Z</time>
            </trkpt>
            <trkpt lon="101.420039" lat="14.601421">
                <ele>376.974243</ele>
                <time>2009-03-29T04:49:28Z</time>
            </trkpt>
            <trkpt lon="101.419834" lat="14.601420">
                <ele>376.974243</ele>
                <time>2009-03-29T04:49:38Z</time>
            </trkpt>
            <trkpt lon="101.419803" lat="14.601340">
                <ele>376.974243</ele>
                <time>2009-03-29T04:49:42Z</time>
            </trkpt>
            <trkpt lon="101.419648" lat="14.600853">
                <ele>376.974243</ele>
                <time>2009-03-29T04:49:58Z</time>
            </trkpt>
            <trkpt lon="101.419519" lat="14.600366">
                <ele>376.974243</ele>
                <time>2009-03-29T04:50:12Z</time>
            </trkpt>
            <trkpt lon="101.419141" lat="14.599694">
                <ele>377.935425</ele>
                <time>2009-03-29T04:50:32Z</time>
            </trkpt>
            <trkpt lon="101.418620" lat="14.599251">
                <ele>378.896851</ele>
                <time>2009-03-29T04:50:52Z</time>
            </trkpt>
            <trkpt lon="101.418612" lat="14.598997">
                <ele>379.858032</ele>
                <time>2009-03-29T04:51:00Z</time>
            </trkpt>
            <trkpt lon="101.418443" lat="14.598946">
                <ele>380.338745</ele>
                <time>2009-03-29T04:51:06Z</time>
            </trkpt>
            <trkpt lon="101.417553" lat="14.599056">
                <ele>381.300049</ele>
                <time>2009-03-29T04:51:29Z</time>
            </trkpt>
            <trkpt lon="101.416805" lat="14.599147">
                <ele>379.377441</ele>
                <time>2009-03-29T04:51:49Z</time>
            </trkpt>
            <trkpt lon="101.415990" lat="14.599259">
                <ele>381.300049</ele>
                <time>2009-03-29T04:52:10Z</time>
            </trkpt>
            <trkpt lon="101.415924" lat="14.599255">
                <ele>380.819458</ele>
                <time>2009-03-29T04:52:12Z</time>
            </trkpt>
            <trkpt lon="101.415536" lat="14.598790">
                <ele>378.896851</ele>
                <time>2009-03-29T04:52:30Z</time>
            </trkpt>
            <trkpt lon="101.415364" lat="14.598538">
                <ele>379.377441</ele>
                <time>2009-03-29T04:52:39Z</time>
            </trkpt>
            <trkpt lon="101.415535" lat="14.598245">
                <ele>380.338745</ele>
                <time>2009-03-29T04:52:49Z</time>
            </trkpt>
            <trkpt lon="101.415633" lat="14.597384">
                <ele>384.184082</ele>
                <time>2009-03-29T04:53:11Z</time>
            </trkpt>
            <trkpt lon="101.415872" lat="14.596997">
                <ele>386.587402</ele>
                <time>2009-03-29T04:53:26Z</time>
            </trkpt>
            <trkpt lon="101.416290" lat="14.596553">
                <ele>388.510010</ele>
                <time>2009-03-29T04:53:44Z</time>
            </trkpt>
            <trkpt lon="101.416875" lat="14.596079">
                <ele>388.990601</ele>
                <time>2009-03-29T04:54:06Z</time>
            </trkpt>
            <trkpt lon="101.417268" lat="14.595670">
                <ele>390.432617</ele>
                <time>2009-03-29T04:54:25Z</time>
            </trkpt>
            <trkpt lon="101.417675" lat="14.595203">
                <ele>389.951904</ele>
                <time>2009-03-29T04:54:45Z</time>
            </trkpt>
            <trkpt lon="101.417803" lat="14.595213">
                <ele>388.510010</ele>
                <time>2009-03-29T04:54:48Z</time>
            </trkpt>
            <trkpt lon="101.417938" lat="14.595269">
                <ele>387.067993</ele>
                <time>2009-03-29T04:54:51Z</time>
            </trkpt>
            <trkpt lon="101.418137" lat="14.595245">
                <ele>388.510010</ele>
                <time>2009-03-29T04:54:55Z</time>
            </trkpt>
            <trkpt lon="101.418137" lat="14.595245">
                <ele>388.510010</ele>
                <time>2009-03-29T04:54:55Z</time>
            </trkpt>
            <trkpt lon="101.418324" lat="14.595090">
                <ele>389.951904</ele>
                <time>2009-03-29T04:55:00Z</time>
            </trkpt>
            <trkpt lon="101.418549" lat="14.595036">
                <ele>389.471191</ele>
                <time>2009-03-29T04:55:05Z</time>
            </trkpt>
            <trkpt lon="101.419071" lat="14.595022">
                <ele>387.067993</ele>
                <time>2009-03-29T04:55:16Z</time>
            </trkpt>
            <trkpt lon="101.419411" lat="14.595363">
                <ele>385.625977</ele>
                <time>2009-03-29T04:55:27Z</time>
            </trkpt>
            <trkpt lon="101.420023" lat="14.595771">
                <ele>382.742065</ele>
                <time>2009-03-29T04:55:40Z</time>
            </trkpt>
            <trkpt lon="101.420417" lat="14.595737">
                <ele>382.742065</ele>
                <time>2009-03-29T04:55:48Z</time>
            </trkpt>
            <trkpt lon="101.420515" lat="14.595647">
                <ele>382.742065</ele>
                <time>2009-03-29T04:55:51Z</time>
            </trkpt>
            <trkpt lon="101.420695" lat="14.595632">
                <ele>382.261352</ele>
                <time>2009-03-29T04:55:55Z</time>
            </trkpt>
            <trkpt lon="101.421745" lat="14.595955">
                <ele>380.819458</ele>
                <time>2009-03-29T04:56:18Z</time>
            </trkpt>
            <trkpt lon="101.422643" lat="14.596268">
                <ele>376.012817</ele>
                <time>2009-03-29T04:56:36Z</time>
            </trkpt>
            <trkpt lon="101.422746" lat="14.596285">
                <ele>375.532105</ele>
                <time>2009-03-29T04:56:38Z</time>
            </trkpt>
            <trkpt lon="101.423617" lat="14.596063">
                <ele>371.686890</ele>
                <time>2009-03-29T04:56:53Z</time>
            </trkpt>
            <trkpt lon="101.423901" lat="14.595971">
                <ele>370.725586</ele>
                <time>2009-03-29T04:56:58Z</time>
            </trkpt>
            <trkpt lon="101.424518" lat="14.595409">
                <ele>370.725586</ele>
                <time>2009-03-29T04:57:14Z</time>
            </trkpt>
            <trkpt lon="101.424651" lat="14.595262">
                <ele>370.244873</ele>
                <time>2009-03-29T04:57:24Z</time>
            </trkpt>
            <trkpt lon="101.424823" lat="14.595032">
                <ele>371.206299</ele>
                <time>2009-03-29T04:57:38Z</time>
            </trkpt>
            <trkpt lon="101.424881" lat="14.594712">
                <ele>372.648193</ele>
                <time>2009-03-29T04:57:53Z</time>
            </trkpt>
            <trkpt lon="101.424659" lat="14.594485">
                <ele>375.051514</ele>
                <time>2009-03-29T04:58:08Z</time>
            </trkpt>
            <trkpt lon="101.424378" lat="14.594306">
                <ele>377.454834</ele>
                <time>2009-03-29T04:58:25Z</time>
            </trkpt>
            <trkpt lon="101.424266" lat="14.594178">
                <ele>379.377441</ele>
                <time>2009-03-29T04:58:35Z</time>
            </trkpt>
            <trkpt lon="101.424320" lat="14.594085">
                <ele>379.377441</ele>
                <time>2009-03-29T04:58:41Z</time>
            </trkpt>
            <trkpt lon="101.424571" lat="14.593805">
                <ele>378.896851</ele>
                <time>2009-03-29T04:59:00Z</time>
            </trkpt>
            <trkpt lon="101.424645" lat="14.593729">
                <ele>379.858032</ele>
                <time>2009-03-29T04:59:12Z</time>
            </trkpt>
            <trkpt lon="101.424617" lat="14.593709">
                <ele>380.338745</ele>
                <time>2009-03-29T04:59:31Z</time>
            </trkpt>
            <trkpt lon="101.424629" lat="14.593709">
                <ele>386.587402</ele>
                <time>2009-03-29T05:00:28Z</time>
            </trkpt>
            <trkpt lon="101.424634" lat="14.593709">
                <ele>383.222656</ele>
                <time>2009-03-29T05:01:08Z</time>
            </trkpt>
            <trkpt lon="101.424644" lat="14.593706">
                <ele>380.338745</ele>
                <time>2009-03-29T05:01:40Z</time>
            </trkpt>
            <trkpt lon="101.424712" lat="14.593672">
                <ele>380.338745</ele>
                <time>2009-03-29T05:01:45Z</time>
            </trkpt>
            <trkpt lon="101.424978" lat="14.593367">
                <ele>381.780640</ele>
                <time>2009-03-29T05:02:04Z</time>
            </trkpt>
            <trkpt lon="101.425330" lat="14.592993">
                <ele>384.184082</ele>
                <time>2009-03-29T05:02:25Z</time>
            </trkpt>
            <trkpt lon="101.425440" lat="14.592894">
                <ele>385.145386</ele>
                <time>2009-03-29T05:02:39Z</time>
            </trkpt>
            <trkpt lon="101.425443" lat="14.592900">
                <ele>392.355347</ele>
                <time>2009-03-29T05:03:24Z</time>
            </trkpt>
            <trkpt lon="101.425462" lat="14.592852">
                <ele>391.874512</ele>
                <time>2009-03-29T05:03:59Z</time>
            </trkpt>
            <trkpt lon="101.425504" lat="14.592823">
                <ele>390.913208</ele>
                <time>2009-03-29T05:04:03Z</time>
            </trkpt>
            <trkpt lon="101.425532" lat="14.592803">
                <ele>391.874512</ele>
                <time>2009-03-29T05:04:26Z</time>
            </trkpt>
            <trkpt lon="101.425524" lat="14.592802">
                <ele>390.432617</ele>
                <time>2009-03-29T05:04:58Z</time>
            </trkpt>
            <trkpt lon="101.425532" lat="14.592810">
                <ele>389.951904</ele>
                <time>2009-03-29T05:05:47Z</time>
            </trkpt>
            <trkpt lon="101.425548" lat="14.592791">
                <ele>384.184082</ele>
                <time>2009-03-29T05:06:40Z</time>
            </trkpt>
            <trkpt lon="101.426140" lat="14.592295">
                <ele>381.300049</ele>
                <time>2009-03-29T05:07:11Z</time>
            </trkpt>
            <trkpt lon="101.426789" lat="14.591490">
                <ele>377.935425</ele>
                <time>2009-03-29T05:07:29Z</time>
            </trkpt>
            <trkpt lon="101.427085" lat="14.591149">
                <ele>376.974243</ele>
                <time>2009-03-29T05:07:38Z</time>
            </trkpt>
            <trkpt lon="101.427198" lat="14.590849">
                <ele>376.974243</ele>
                <time>2009-03-29T05:07:48Z</time>
            </trkpt>
            <trkpt lon="101.426851" lat="14.590372">
                <ele>380.338745</ele>
                <time>2009-03-29T05:08:04Z</time>
            </trkpt>
            <trkpt lon="101.426447" lat="14.589927">
                <ele>384.184082</ele>
                <time>2009-03-29T05:08:24Z</time>
            </trkpt>
            <trkpt lon="101.426067" lat="14.589442">
                <ele>386.106690</ele>
                <time>2009-03-29T05:08:44Z</time>
            </trkpt>
            <trkpt lon="101.425747" lat="14.588972">
                <ele>388.029297</ele>
                <time>2009-03-29T05:09:04Z</time>
            </trkpt>
            <trkpt lon="101.425400" lat="14.588417">
                <ele>388.990601</ele>
                <time>2009-03-29T05:09:25Z</time>
            </trkpt>
            <trkpt lon="101.425018" lat="14.588053">
                <ele>390.432617</ele>
                <time>2009-03-29T05:09:43Z</time>
            </trkpt>
            <trkpt lon="101.424609" lat="14.587717">
                <ele>393.316528</ele>
                <time>2009-03-29T05:10:03Z</time>
            </trkpt>
            <trkpt lon="101.424070" lat="14.587303">
                <ele>399.565064</ele>
                <time>2009-03-29T05:10:25Z</time>
            </trkpt>
            <trkpt lon="101.423603" lat="14.587077">
                <ele>400.045898</ele>
                <time>2009-03-29T05:10:41Z</time>
            </trkpt>
            <trkpt lon="101.423128" lat="14.586812">
                <ele>398.603760</ele>
                <time>2009-03-29T05:10:59Z</time>
            </trkpt>
            <trkpt lon="101.422825" lat="14.586253">
                <ele>394.758545</ele>
                <time>2009-03-29T05:11:18Z</time>
            </trkpt>
            <trkpt lon="101.422598" lat="14.585880">
                <ele>392.355347</ele>
                <time>2009-03-29T05:11:33Z</time>
            </trkpt>
            <trkpt lon="101.422179" lat="14.585423">
                <ele>389.951904</ele>
                <time>2009-03-29T05:11:54Z</time>
            </trkpt>
            <trkpt lon="101.422127" lat="14.585255">
                <ele>393.797241</ele>
                <time>2009-03-29T05:12:07Z</time>
            </trkpt>
            <trkpt lon="101.422169" lat="14.585164">
                <ele>398.123169</ele>
                <time>2009-03-29T05:12:18Z</time>
            </trkpt>
            <trkpt lon="101.422210" lat="14.585013">
                <ele>407.736328</ele>
                <time>2009-03-29T05:12:37Z</time>
            </trkpt>
            <trkpt lon="101.422201" lat="14.585003">
                <ele>407.736328</ele>
                <time>2009-03-29T05:12:39Z</time>
            </trkpt>
            <trkpt lon="101.422192" lat="14.584871">
                <ele>408.697632</ele>
                <time>2009-03-29T05:12:53Z</time>
            </trkpt>
            <trkpt lon="101.422305" lat="14.584763">
                <ele>415.426880</ele>
                <time>2009-03-29T05:13:10Z</time>
            </trkpt>
            <trkpt lon="101.422403" lat="14.584640">
                <ele>420.233398</ele>
                <time>2009-03-29T05:13:30Z</time>
            </trkpt>
            <trkpt lon="101.422468" lat="14.584490">
                <ele>421.194824</ele>
                <time>2009-03-29T05:13:46Z</time>
            </trkpt>
            <trkpt lon="101.422500" lat="14.584338">
                <ele>423.598023</ele>
                <time>2009-03-29T05:14:04Z</time>
            </trkpt>
            <trkpt lon="101.422592" lat="14.584269">
                <ele>425.520752</ele>
                <time>2009-03-29T05:14:17Z</time>
            </trkpt>
            <trkpt lon="101.422712" lat="14.584203">
                <ele>429.846558</ele>
                <time>2009-03-29T05:14:33Z</time>
            </trkpt>
            <trkpt lon="101.422784" lat="14.584180">
                <ele>431.288574</ele>
                <time>2009-03-29T05:14:41Z</time>
            </trkpt>
            <trkpt lon="101.422844" lat="14.584159">
                <ele>431.769165</ele>
                <time>2009-03-29T05:14:47Z</time>
            </trkpt>
            <trkpt lon="101.422954" lat="14.584066">
                <ele>436.575928</ele>
                <time>2009-03-29T05:15:05Z</time>
            </trkpt>
            <trkpt lon="101.423026" lat="14.583971">
                <ele>434.172607</ele>
                <time>2009-03-29T05:15:24Z</time>
            </trkpt>
            <trkpt lon="101.423071" lat="14.583908">
                <ele>436.575928</ele>
                <time>2009-03-29T05:15:33Z</time>
            </trkpt>
            <trkpt lon="101.423341" lat="14.583411">
                <ele>430.807983</ele>
                <time>2009-03-29T05:15:58Z</time>
            </trkpt>
            <trkpt lon="101.423611" lat="14.583336">
                <ele>428.885376</ele>
                <time>2009-03-29T05:16:15Z</time>
            </trkpt>
            <trkpt lon="101.423904" lat="14.583183">
                <ele>433.211304</ele>
                <time>2009-03-29T05:16:29Z</time>
            </trkpt>
            <trkpt lon="101.424178" lat="14.583030">
                <ele>429.365967</ele>
                <time>2009-03-29T05:16:44Z</time>
            </trkpt>
            <trkpt lon="101.424334" lat="14.582918">
                <ele>427.443359</ele>
                <time>2009-03-29T05:16:58Z</time>
            </trkpt>
            <trkpt lon="101.424604" lat="14.582717">
                <ele>424.078735</ele>
                <time>2009-03-29T05:17:16Z</time>
            </trkpt>
            <trkpt lon="101.424721" lat="14.582726">
                <ele>427.443359</ele>
                <time>2009-03-29T05:17:35Z</time>
            </trkpt>
            <trkpt lon="101.424876" lat="14.582774">
                <ele>431.288574</ele>
                <time>2009-03-29T05:17:51Z</time>
            </trkpt>
            <trkpt lon="101.425059" lat="14.582762">
                <ele>432.250000</ele>
                <time>2009-03-29T05:18:06Z</time>
            </trkpt>
            <trkpt lon="101.425319" lat="14.582656">
                <ele>431.288574</ele>
                <time>2009-03-29T05:18:23Z</time>
            </trkpt>
            <trkpt lon="101.425593" lat="14.582440">
                <ele>427.443359</ele>
                <time>2009-03-29T05:18:42Z</time>
            </trkpt>
            <trkpt lon="101.425687" lat="14.582342">
                <ele>427.443359</ele>
                <time>2009-03-29T05:18:56Z</time>
            </trkpt>
            <trkpt lon="101.425813" lat="14.582175">
                <ele>423.598023</ele>
                <time>2009-03-29T05:19:10Z</time>
            </trkpt>
            <trkpt lon="101.425832" lat="14.581998">
                <ele>419.752808</ele>
                <time>2009-03-29T05:19:18Z</time>
            </trkpt>
            <trkpt lon="101.426020" lat="14.581736">
                <ele>417.349609</ele>
                <time>2009-03-29T05:19:33Z</time>
            </trkpt>
            <trkpt lon="101.426306" lat="14.581746">
                <ele>417.349609</ele>
                <time>2009-03-29T05:19:51Z</time>
            </trkpt>
            <trkpt lon="101.426469" lat="14.581656">
                <ele>414.946167</ele>
                <time>2009-03-29T05:20:02Z</time>
            </trkpt>
            <trkpt lon="101.426499" lat="14.581410">
                <ele>411.100952</ele>
                <time>2009-03-29T05:20:14Z</time>
            </trkpt>
            <trkpt lon="101.426786" lat="14.581308">
                <ele>409.178345</ele>
                <time>2009-03-29T05:20:27Z</time>
            </trkpt>
            <trkpt lon="101.426853" lat="14.581254">
                <ele>408.697632</ele>
                <time>2009-03-29T05:20:30Z</time>
            </trkpt>
            <trkpt lon="101.426978" lat="14.581212">
                <ele>408.217041</ele>
                <time>2009-03-29T05:20:34Z</time>
            </trkpt>
            <trkpt lon="101.427278" lat="14.581203">
                <ele>406.294311</ele>
                <time>2009-03-29T05:20:48Z</time>
            </trkpt>
            <trkpt lon="101.427663" lat="14.581103">
                <ele>403.410400</ele>
                <time>2009-03-29T05:21:03Z</time>
            </trkpt>
            <trkpt lon="101.427734" lat="14.580998">
                <ele>402.929688</ele>
                <time>2009-03-29T05:21:07Z</time>
            </trkpt>
            <trkpt lon="101.428061" lat="14.580889">
                <ele>401.968506</ele>
                <time>2009-03-29T05:21:19Z</time>
            </trkpt>
            <trkpt lon="101.428163" lat="14.580744">
                <ele>399.084351</ele>
                <time>2009-03-29T05:21:25Z</time>
            </trkpt>
            <trkpt lon="101.428269" lat="14.580512">
                <ele>397.642456</ele>
                <time>2009-03-29T05:21:32Z</time>
            </trkpt>
            <trkpt lon="101.428376" lat="14.580540">
                <ele>395.719849</ele>
                <time>2009-03-29T05:21:38Z</time>
            </trkpt>
            <trkpt lon="101.428567" lat="14.580459">
                <ele>398.603760</ele>
                <time>2009-03-29T05:21:48Z</time>
            </trkpt>
            <trkpt lon="101.428720" lat="14.580303">
                <ele>399.565064</ele>
                <time>2009-03-29T05:21:57Z</time>
            </trkpt>
            <trkpt lon="101.428772" lat="14.580313">
                <ele>400.045898</ele>
                <time>2009-03-29T05:22:00Z</time>
            </trkpt>
            <trkpt lon="101.428919" lat="14.580252">
                <ele>398.603760</ele>
                <time>2009-03-29T05:22:07Z</time>
            </trkpt>
            <trkpt lon="101.429177" lat="14.580087">
                <ele>397.161743</ele>
                <time>2009-03-29T05:22:20Z</time>
            </trkpt>
            <trkpt lon="101.429142" lat="14.579941">
                <ele>396.200561</ele>
                <time>2009-03-29T05:22:31Z</time>
            </trkpt>
            <trkpt lon="101.429335" lat="14.579895">
                <ele>394.758545</ele>
                <time>2009-03-29T05:22:40Z</time>
            </trkpt>
            <trkpt lon="101.429610" lat="14.579925">
                <ele>394.758545</ele>
                <time>2009-03-29T05:22:53Z</time>
            </trkpt>
            <trkpt lon="101.429893" lat="14.579855">
                <ele>393.797241</ele>
                <time>2009-03-29T05:23:06Z</time>
            </trkpt>
            <trkpt lon="101.430156" lat="14.579870">
                <ele>393.797241</ele>
                <time>2009-03-29T05:23:17Z</time>
            </trkpt>
            <trkpt lon="101.430175" lat="14.579857">
                <ele>393.316528</ele>
                <time>2009-03-29T05:23:19Z</time>
            </trkpt>
            <trkpt lon="101.430531" lat="14.579849">
                <ele>389.951904</ele>
                <time>2009-03-29T05:23:32Z</time>
            </trkpt>
            <trkpt lon="101.430885" lat="14.580041">
                <ele>387.067993</ele>
                <time>2009-03-29T05:23:46Z</time>
            </trkpt>
            <trkpt lon="101.431130" lat="14.580210">
                <ele>387.548584</ele>
                <time>2009-03-29T05:23:58Z</time>
            </trkpt>
            <trkpt lon="101.431555" lat="14.580593">
                <ele>388.510010</ele>
                <time>2009-03-29T05:24:25Z</time>
            </trkpt>
            <trkpt lon="101.431733" lat="14.580640">
                <ele>387.067993</ele>
                <time>2009-03-29T05:24:30Z</time>
            </trkpt>
            <trkpt lon="101.431936" lat="14.580790">
                <ele>384.664795</ele>
                <time>2009-03-29T05:24:37Z</time>
            </trkpt>
            <trkpt lon="101.431986" lat="14.580909">
                <ele>386.106690</ele>
                <time>2009-03-29T05:24:44Z</time>
            </trkpt>
            <trkpt lon="101.432115" lat="14.581050">
                <ele>388.029297</ele>
                <time>2009-03-29T05:25:01Z</time>
            </trkpt>
            <trkpt lon="101.432151" lat="14.581088">
                <ele>388.029297</ele>
                <time>2009-03-29T05:25:08Z</time>
            </trkpt>
            <trkpt lon="101.432164" lat="14.581135">
                <ele>388.510010</ele>
                <time>2009-03-29T05:25:12Z</time>
            </trkpt>
            <trkpt lon="101.432258" lat="14.581410">
                <ele>392.835938</ele>
                <time>2009-03-29T05:25:30Z</time>
            </trkpt>
            <trkpt lon="101.432309" lat="14.581442">
                <ele>392.355347</ele>
                <time>2009-03-29T05:25:34Z</time>
            </trkpt>
            <trkpt lon="101.432498" lat="14.581625">
                <ele>391.393799</ele>
                <time>2009-03-29T05:25:46Z</time>
            </trkpt>
            <trkpt lon="101.432540" lat="14.581729">
                <ele>392.355347</ele>
                <time>2009-03-29T05:26:03Z</time>
            </trkpt>
            <trkpt lon="101.432590" lat="14.581869">
                <ele>396.200561</ele>
                <time>2009-03-29T05:26:49Z</time>
            </trkpt>
            <trkpt lon="101.432622" lat="14.581922">
                <ele>396.200561</ele>
                <time>2009-03-29T05:26:56Z</time>
            </trkpt>
            <trkpt lon="101.432665" lat="14.581952">
                <ele>395.239136</ele>
                <time>2009-03-29T05:27:00Z</time>
            </trkpt>
            <trkpt lon="101.432768" lat="14.582158">
                <ele>394.758545</ele>
                <time>2009-03-29T05:27:16Z</time>
            </trkpt>
            <trkpt lon="101.432858" lat="14.582290">
                <ele>395.719849</ele>
                <time>2009-03-29T05:27:34Z</time>
            </trkpt>
            <trkpt lon="101.432879" lat="14.582298">
                <ele>395.239136</ele>
                <time>2009-03-29T05:27:36Z</time>
            </trkpt>
            <trkpt lon="101.433133" lat="14.582420">
                <ele>391.393799</ele>
                <time>2009-03-29T05:27:49Z</time>
            </trkpt>
            <trkpt lon="101.433267" lat="14.582624">
                <ele>390.432617</ele>
                <time>2009-03-29T05:28:01Z</time>
            </trkpt>
            <trkpt lon="101.433414" lat="14.582641">
                <ele>387.067993</ele>
                <time>2009-03-29T05:28:10Z</time>
            </trkpt>
            <trkpt lon="101.433341" lat="14.582425">
                <ele>383.703247</ele>
                <time>2009-03-29T05:28:22Z</time>
            </trkpt>
            <trkpt lon="101.433285" lat="14.582139">
                <ele>381.780640</ele>
                <time>2009-03-29T05:28:31Z</time>
            </trkpt>
            <trkpt lon="101.433265" lat="14.582122">
                <ele>381.780640</ele>
                <time>2009-03-29T05:28:32Z</time>
            </trkpt>
            <trkpt lon="101.433296" lat="14.581990">
                <ele>381.780640</ele>
                <time>2009-03-29T05:28:38Z</time>
            </trkpt>
            <trkpt lon="101.433418" lat="14.581889">
                <ele>379.377441</ele>
                <time>2009-03-29T05:28:43Z</time>
            </trkpt>
            <trkpt lon="101.433479" lat="14.581937">
                <ele>379.377441</ele>
                <time>2009-03-29T05:28:47Z</time>
            </trkpt>
            <trkpt lon="101.433648" lat="14.582229">
                <ele>379.377441</ele>
                <time>2009-03-29T05:28:57Z</time>
            </trkpt>
            <trkpt lon="101.433745" lat="14.582416">
                <ele>378.896851</ele>
                <time>2009-03-29T05:29:01Z</time>
            </trkpt>
            <trkpt lon="101.433915" lat="14.582740">
                <ele>379.858032</ele>
                <time>2009-03-29T05:29:13Z</time>
            </trkpt>
            <trkpt lon="101.434002" lat="14.583163">
                <ele>381.300049</ele>
                <time>2009-03-29T05:29:28Z</time>
            </trkpt>
            <trkpt lon="101.434161" lat="14.583764">
                <ele>381.780640</ele>
                <time>2009-03-29T05:29:45Z</time>
            </trkpt>
            <trkpt lon="101.434323" lat="14.584033">
                <ele>382.261352</ele>
                <time>2009-03-29T05:29:53Z</time>
            </trkpt>
            <trkpt lon="101.434748" lat="14.583939">
                <ele>381.780640</ele>
                <time>2009-03-29T05:30:02Z</time>
            </trkpt>
            <trkpt lon="101.435544" lat="14.583606">
                <ele>376.974243</ele>
                <time>2009-03-29T05:30:14Z</time>
            </trkpt>
            <trkpt lon="101.435655" lat="14.583545">
                <ele>375.532105</ele>
                <time>2009-03-29T05:30:16Z</time>
            </trkpt>
            <trkpt lon="101.435895" lat="14.583625">
                <ele>375.051514</ele>
                <time>2009-03-29T05:30:24Z</time>
            </trkpt>
            <trkpt lon="101.436223" lat="14.584186">
                <ele>376.012817</ele>
                <time>2009-03-29T05:30:41Z</time>
            </trkpt>
            <trkpt lon="101.436470" lat="14.584597">
                <ele>377.454834</ele>
                <time>2009-03-29T05:30:56Z</time>
            </trkpt>
            <trkpt lon="101.436704" lat="14.585063">
                <ele>380.819458</ele>
                <time>2009-03-29T05:31:16Z</time>
            </trkpt>
            <trkpt lon="101.436939" lat="14.585499">
                <ele>383.222656</ele>
                <time>2009-03-29T05:31:34Z</time>
            </trkpt>
            <trkpt lon="101.437357" lat="14.586021">
                <ele>382.742065</ele>
                <time>2009-03-29T05:31:53Z</time>
            </trkpt>
            <trkpt lon="101.437700" lat="14.586745">
                <ele>378.896851</ele>
                <time>2009-03-29T05:32:07Z</time>
            </trkpt>
            <trkpt lon="101.437763" lat="14.586877">
                <ele>378.416138</ele>
                <time>2009-03-29T05:32:10Z</time>
            </trkpt>
            <trkpt lon="101.438073" lat="14.587041">
                <ele>375.532105</ele>
                <time>2009-03-29T05:32:17Z</time>
            </trkpt>
            <trkpt lon="101.438265" lat="14.587065">
                <ele>373.609497</ele>
                <time>2009-03-29T05:32:21Z</time>
            </trkpt>
            <trkpt lon="101.438419" lat="14.587139">
                <ele>372.648193</ele>
                <time>2009-03-29T05:32:25Z</time>
            </trkpt>
            <trkpt lon="101.438753" lat="14.587007">
                <ele>369.764282</ele>
                <time>2009-03-29T05:32:32Z</time>
            </trkpt>
            <trkpt lon="101.439476" lat="14.586428">
                <ele>369.283691</ele>
                <time>2009-03-29T05:32:48Z</time>
            </trkpt>
            <trkpt lon="101.440109" lat="14.585932">
                <ele>368.322266</ele>
                <time>2009-03-29T05:33:03Z</time>
            </trkpt>
            <trkpt lon="101.440354" lat="14.585732">
                <ele>368.322266</ele>
                <time>2009-03-29T05:33:09Z</time>
            </trkpt>
            <trkpt lon="101.440645" lat="14.585795">
                <ele>366.880249</ele>
                <time>2009-03-29T05:33:18Z</time>
            </trkpt>
            <trkpt lon="101.441235" lat="14.586507">
                <ele>368.322266</ele>
                <time>2009-03-29T05:33:35Z</time>
            </trkpt>
            <trkpt lon="101.441729" lat="14.587020">
                <ele>368.322266</ele>
                <time>2009-03-29T05:33:50Z</time>
            </trkpt>
            <trkpt lon="101.442417" lat="14.587682">
                <ele>360.631714</ele>
                <time>2009-03-29T05:34:04Z</time>
            </trkpt>
            <trkpt lon="101.443358" lat="14.588543">
                <ele>353.902588</ele>
                <time>2009-03-29T05:34:18Z</time>
            </trkpt>
            <trkpt lon="101.443711" lat="14.588871">
                <ele>351.979858</ele>
                <time>2009-03-29T05:34:24Z</time>
            </trkpt>
            <trkpt lon="101.444096" lat="14.588741">
                <ele>351.018433</ele>
                <time>2009-03-29T05:34:31Z</time>
            </trkpt>
            <trkpt lon="101.444132" lat="14.588686">
                <ele>351.018433</ele>
                <time>2009-03-29T05:34:32Z</time>
            </trkpt>
            <trkpt lon="101.444335" lat="14.588357">
                <ele>351.018433</ele>
                <time>2009-03-29T05:34:38Z</time>
            </trkpt>
            <trkpt lon="101.444621" lat="14.587687">
                <ele>351.018433</ele>
                <time>2009-03-29T05:34:49Z</time>
            </trkpt>
            <trkpt lon="101.444687" lat="14.587579">
                <ele>352.460571</ele>
                <time>2009-03-29T05:34:51Z</time>
            </trkpt>
            <trkpt lon="101.444944" lat="14.587248">
                <ele>352.460571</ele>
                <time>2009-03-29T05:34:58Z</time>
            </trkpt>
            <trkpt lon="101.444996" lat="14.587143">
                <ele>352.460571</ele>
                <time>2009-03-29T05:35:00Z</time>
            </trkpt>
            <trkpt lon="101.445364" lat="14.585952">
                <ele>351.018433</ele>
                <time>2009-03-29T05:35:22Z</time>
            </trkpt>
            <trkpt lon="101.445973" lat="14.585098">
                <ele>350.057251</ele>
                <time>2009-03-29T05:35:39Z</time>
            </trkpt>
            <trkpt lon="101.446968" lat="14.584355">
                <ele>347.173218</ele>
                <time>2009-03-29T05:35:58Z</time>
            </trkpt>
            <trkpt lon="101.447235" lat="14.584356">
                <ele>347.173218</ele>
                <time>2009-03-29T05:36:05Z</time>
            </trkpt>
            <trkpt lon="101.447191" lat="14.584259">
                <ele>347.653931</ele>
                <time>2009-03-29T05:36:10Z</time>
            </trkpt>
            <trkpt lon="101.447124" lat="14.584138">
                <ele>347.653931</ele>
                <time>2009-03-29T05:36:16Z</time>
            </trkpt>
            <trkpt lon="101.447052" lat="14.584207">
                <ele>347.173218</ele>
                <time>2009-03-29T05:36:21Z</time>
            </trkpt>
            <trkpt lon="101.446833" lat="14.584390">
                <ele>347.173218</ele>
                <time>2009-03-29T05:36:32Z</time>
            </trkpt>
            <trkpt lon="101.446855" lat="14.584395">
                <ele>347.173218</ele>
                <time>2009-03-29T05:36:49Z</time>
            </trkpt>
            <trkpt lon="101.447006" lat="14.584334">
                <ele>346.692627</ele>
                <time>2009-03-29T05:37:03Z</time>
            </trkpt>
            <trkpt lon="101.447053" lat="14.584327">
                <ele>350.057251</ele>
                <time>2009-03-29T05:37:46Z</time>
            </trkpt>
            <trkpt lon="101.447289" lat="14.584423">
                <ele>349.095825</ele>
                <time>2009-03-29T05:37:54Z</time>
            </trkpt>
            <trkpt lon="101.447683" lat="14.585254">
                <ele>346.212036</ele>
                <time>2009-03-29T05:38:13Z</time>
            </trkpt>
            <trkpt lon="101.448072" lat="14.586030">
                <ele>343.808594</ele>
                <time>2009-03-29T05:38:30Z</time>
            </trkpt>
            <trkpt lon="101.448240" lat="14.586147">
                <ele>343.327881</ele>
                <time>2009-03-29T05:38:35Z</time>
            </trkpt>
            <trkpt lon="101.448316" lat="14.586190">
                <ele>343.327881</ele>
                <time>2009-03-29T05:38:38Z</time>
            </trkpt>
            <trkpt lon="101.448162" lat="14.586313">
                <ele>343.808594</ele>
                <time>2009-03-29T05:38:47Z</time>
            </trkpt>
            <trkpt lon="101.448150" lat="14.586324">
                <ele>343.808594</ele>
                <time>2009-03-29T05:39:00Z</time>
            </trkpt>
            <trkpt lon="101.448183" lat="14.586311">
                <ele>344.289429</ele>
                <time>2009-03-29T05:39:27Z</time>
            </trkpt>
            <trkpt lon="101.448258" lat="14.586284">
                <ele>343.808594</ele>
                <time>2009-03-29T05:39:31Z</time>
            </trkpt>
            <trkpt lon="101.448867" lat="14.585979">
                <ele>342.366699</ele>
                <time>2009-03-29T05:39:46Z</time>
            </trkpt>
            <trkpt lon="101.449658" lat="14.585551">
                <ele>340.924683</ele>
                <time>2009-03-29T05:40:02Z</time>
            </trkpt>
            <trkpt lon="101.450448" lat="14.584893">
                <ele>340.444092</ele>
                <time>2009-03-29T05:40:21Z</time>
            </trkpt>
            <trkpt lon="101.450722" lat="14.584338">
                <ele>339.963379</ele>
                <time>2009-03-29T05:40:33Z</time>
            </trkpt>
            <trkpt lon="101.450889" lat="14.584231">
                <ele>339.963379</ele>
                <time>2009-03-29T05:40:38Z</time>
            </trkpt>
            <trkpt lon="101.451521" lat="14.584161">
                <ele>339.002075</ele>
                <time>2009-03-29T05:40:53Z</time>
            </trkpt>
            <trkpt lon="101.452045" lat="14.583866">
                <ele>338.521484</ele>
                <time>2009-03-29T05:41:09Z</time>
            </trkpt>
            <trkpt lon="101.452227" lat="14.583721">
                <ele>340.444092</ele>
                <time>2009-03-29T05:41:15Z</time>
            </trkpt>
            <trkpt lon="101.452925" lat="14.583264">
                <ele>340.444092</ele>
                <time>2009-03-29T05:41:34Z</time>
            </trkpt>
            <trkpt lon="101.453090" lat="14.583173">
                <ele>339.963379</ele>
                <time>2009-03-29T05:41:38Z</time>
            </trkpt>
            <trkpt lon="101.454125" lat="14.582757">
                <ele>339.482666</ele>
                <time>2009-03-29T05:42:01Z</time>
            </trkpt>
            <trkpt lon="101.454541" lat="14.582535">
                <ele>338.521484</ele>
                <time>2009-03-29T05:42:12Z</time>
            </trkpt>
            <trkpt lon="101.454618" lat="14.582680">
                <ele>337.560059</ele>
                <time>2009-03-29T05:42:18Z</time>
            </trkpt>
            <trkpt lon="101.454527" lat="14.583579">
                <ele>337.560059</ele>
                <time>2009-03-29T05:42:34Z</time>
            </trkpt>
            <trkpt lon="101.454393" lat="14.584729">
                <ele>336.598877</ele>
                <time>2009-03-29T05:42:52Z</time>
            </trkpt>
            <trkpt lon="101.454213" lat="14.586289">
                <ele>335.637329</ele>
                <time>2009-03-29T05:43:16Z</time>
            </trkpt>
            <trkpt lon="101.454098" lat="14.587310">
                <ele>334.676148</ele>
                <time>2009-03-29T05:43:33Z</time>
            </trkpt>
            <trkpt lon="101.453974" lat="14.588543">
                <ele>334.195435</ele>
                <time>2009-03-29T05:43:54Z</time>
            </trkpt>
            <trkpt lon="101.453981" lat="14.588625">
                <ele>333.714722</ele>
                <time>2009-03-29T05:43:56Z</time>
            </trkpt>
            <trkpt lon="101.454054" lat="14.588655">
                <ele>335.156738</ele>
                <time>2009-03-29T05:44:05Z</time>
            </trkpt>
            <trkpt lon="101.454075" lat="14.588689">
                <ele>335.637329</ele>
                <time>2009-03-29T05:44:24Z</time>
            </trkpt>
            <trkpt lon="101.454085" lat="14.588701">
                <ele>335.637329</ele>
                <time>2009-03-29T05:44:26Z</time>
            </trkpt>
            <trkpt lon="101.454115" lat="14.588731">
                <ele>336.118164</ele>
                <time>2009-03-29T05:44:30Z</time>
            </trkpt>
            <trkpt lon="101.454588" lat="14.588891">
                <ele>335.637329</ele>
                <time>2009-03-29T05:44:44Z</time>
            </trkpt>
            <trkpt lon="101.455644" lat="14.589295">
                <ele>335.156738</ele>
                <time>2009-03-29T05:45:05Z</time>
            </trkpt>
            <trkpt lon="101.455915" lat="14.589395">
                <ele>334.676148</ele>
                <time>2009-03-29T05:45:10Z</time>
            </trkpt>
            <trkpt lon="101.456084" lat="14.589424">
                <ele>334.676148</ele>
                <time>2009-03-29T05:45:13Z</time>
            </trkpt>
            <trkpt lon="101.457060" lat="14.589823">
                <ele>335.156738</ele>
                <time>2009-03-29T05:45:33Z</time>
            </trkpt>
            <trkpt lon="101.458053" lat="14.590222">
                <ele>335.637329</ele>
                <time>2009-03-29T05:45:54Z</time>
            </trkpt>
            <trkpt lon="101.458107" lat="14.590240">
                <ele>335.637329</ele>
                <time>2009-03-29T05:45:55Z</time>
            </trkpt>
            <trkpt lon="101.458529" lat="14.590389">
                <ele>335.637329</ele>
                <time>2009-03-29T05:46:03Z</time>
            </trkpt>
            <trkpt lon="101.459476" lat="14.590756">
                <ele>336.118164</ele>
                <time>2009-03-29T05:46:22Z</time>
            </trkpt>
            <trkpt lon="101.460405" lat="14.591107">
                <ele>338.040772</ele>
                <time>2009-03-29T05:46:43Z</time>
            </trkpt>
            <trkpt lon="101.460549" lat="14.591150">
                <ele>338.040772</ele>
                <time>2009-03-29T05:46:46Z</time>
            </trkpt>
            <trkpt lon="101.461564" lat="14.591579">
                <ele>337.560059</ele>
                <time>2009-03-29T05:47:05Z</time>
            </trkpt>
            <trkpt lon="101.462543" lat="14.591945">
                <ele>336.598877</ele>
                <time>2009-03-29T05:47:22Z</time>
            </trkpt>
            <trkpt lon="101.463448" lat="14.592289">
                <ele>337.079468</ele>
                <time>2009-03-29T05:47:41Z</time>
            </trkpt>
            <trkpt lon="101.463648" lat="14.592365">
                <ele>337.560059</ele>
                <time>2009-03-29T05:47:46Z</time>
            </trkpt>
            <trkpt lon="101.464338" lat="14.592615">
                <ele>337.560059</ele>
                <time>2009-03-29T05:48:03Z</time>
            </trkpt>
            <trkpt lon="101.465330" lat="14.592975">
                <ele>336.118164</ele>
                <time>2009-03-29T05:48:21Z</time>
            </trkpt>
            <trkpt lon="101.466380" lat="14.593383">
                <ele>335.156738</ele>
                <time>2009-03-29T05:48:39Z</time>
            </trkpt>
            <trkpt lon="101.467303" lat="14.593750">
                <ele>336.118164</ele>
                <time>2009-03-29T05:48:58Z</time>
            </trkpt>
            <trkpt lon="101.467964" lat="14.594004">
                <ele>339.002075</ele>
                <time>2009-03-29T05:49:16Z</time>
            </trkpt>
            <trkpt lon="101.468649" lat="14.594255">
                <ele>339.482666</ele>
                <time>2009-03-29T05:49:35Z</time>
            </trkpt>
            <trkpt lon="101.469467" lat="14.594583">
                <ele>337.079468</ele>
                <time>2009-03-29T05:49:50Z</time>
            </trkpt>
            <trkpt lon="101.470507" lat="14.594777">
                <ele>334.676148</ele>
                <time>2009-03-29T05:50:07Z</time>
            </trkpt>
            <trkpt lon="101.471745" lat="14.594738">
                <ele>332.753540</ele>
                <time>2009-03-29T05:50:27Z</time>
            </trkpt>
            <trkpt lon="101.472603" lat="14.594597">
                <ele>332.272827</ele>
                <time>2009-03-29T05:50:44Z</time>
            </trkpt>
            <trkpt lon="101.473329" lat="14.594367">
                <ele>333.234131</ele>
                <time>2009-03-29T05:51:00Z</time>
            </trkpt>
            <trkpt lon="101.474172" lat="14.594120">
                <ele>334.195435</ele>
                <time>2009-03-29T05:51:22Z</time>
            </trkpt>
            <trkpt lon="101.474250" lat="14.594126">
                <ele>333.714722</ele>
                <time>2009-03-29T05:51:24Z</time>
            </trkpt>
            <trkpt lon="101.474325" lat="14.594256">
                <ele>335.156738</ele>
                <time>2009-03-29T05:51:28Z</time>
            </trkpt>
            <trkpt lon="101.474213" lat="14.595036">
                <ele>334.195435</ele>
                <time>2009-03-29T05:51:44Z</time>
            </trkpt>
            <trkpt lon="101.474075" lat="14.596169">
                <ele>331.311523</ele>
                <time>2009-03-29T05:52:03Z</time>
            </trkpt>
            <trkpt lon="101.474071" lat="14.596275">
                <ele>331.311523</ele>
                <time>2009-03-29T05:52:05Z</time>
            </trkpt>
            <trkpt lon="101.473829" lat="14.596462">
                <ele>330.830933</ele>
                <time>2009-03-29T05:52:12Z</time>
            </trkpt>
            <trkpt lon="101.472915" lat="14.596519">
                <ele>332.272827</ele>
                <time>2009-03-29T05:52:30Z</time>
            </trkpt>
            <trkpt lon="101.471936" lat="14.596682">
                <ele>332.272827</ele>
                <time>2009-03-29T05:52:49Z</time>
            </trkpt>
            <trkpt lon="101.471429" lat="14.596781">
                <ele>333.714722</ele>
                <time>2009-03-29T05:53:00Z</time>
            </trkpt>
            <trkpt lon="101.471284" lat="14.596878">
                <ele>334.195435</ele>
                <time>2009-03-29T05:53:04Z</time>
            </trkpt>
            <trkpt lon="101.470798" lat="14.597331">
                <ele>334.676148</ele>
                <time>2009-03-29T05:53:18Z</time>
            </trkpt>
            <trkpt lon="101.470365" lat="14.597947">
                <ele>335.637329</ele>
                <time>2009-03-29T05:53:33Z</time>
            </trkpt>
            <trkpt lon="101.470339" lat="14.597989">
                <ele>336.118164</ele>
                <time>2009-03-29T05:53:34Z</time>
            </trkpt>
            <trkpt lon="101.470050" lat="14.598379">
                <ele>337.079468</ele>
                <time>2009-03-29T05:53:44Z</time>
            </trkpt>
            <trkpt lon="101.469890" lat="14.598783">
                <ele>339.002075</ele>
                <time>2009-03-29T05:53:54Z</time>
            </trkpt>
            <trkpt lon="101.469653" lat="14.599189">
                <ele>339.482666</ele>
                <time>2009-03-29T05:54:05Z</time>
            </trkpt>
            <trkpt lon="101.469399" lat="14.599899">
                <ele>338.521484</ele>
                <time>2009-03-29T05:54:21Z</time>
            </trkpt>
            <trkpt lon="101.469154" lat="14.600618">
                <ele>338.040772</ele>
                <time>2009-03-29T05:54:35Z</time>
            </trkpt>
            <trkpt lon="101.468816" lat="14.601584">
                <ele>338.040772</ele>
                <time>2009-03-29T05:54:53Z</time>
            </trkpt>
            <trkpt lon="101.468342" lat="14.602462">
                <ele>338.040772</ele>
                <time>2009-03-29T05:55:12Z</time>
            </trkpt>
            <trkpt lon="101.468255" lat="14.602683">
                <ele>338.040772</ele>
                <time>2009-03-29T05:55:17Z</time>
            </trkpt>
            <trkpt lon="101.468376" lat="14.602885">
                <ele>338.040772</ele>
                <time>2009-03-29T05:55:23Z</time>
            </trkpt>
            <trkpt lon="101.469097" lat="14.603355">
                <ele>337.560059</ele>
                <time>2009-03-29T05:55:40Z</time>
            </trkpt>
            <trkpt lon="101.469200" lat="14.603410">
                <ele>337.560059</ele>
                <time>2009-03-29T05:55:42Z</time>
            </trkpt>
            <trkpt lon="101.470190" lat="14.604103">
                <ele>334.195435</ele>
                <time>2009-03-29T05:55:59Z</time>
            </trkpt>
            <trkpt lon="101.471688" lat="14.605117">
                <ele>331.311523</ele>
                <time>2009-03-29T05:56:23Z</time>
            </trkpt>
            <trkpt lon="101.472525" lat="14.605709">
                <ele>329.869507</ele>
                <time>2009-03-29T05:56:39Z</time>
            </trkpt>
            <trkpt lon="101.472618" lat="14.605789">
                <ele>330.350220</ele>
                <time>2009-03-29T05:56:50Z</time>
            </trkpt>
            <trkpt lon="101.472894" lat="14.606141">
                <ele>330.830933</ele>
                <time>2009-03-29T05:57:03Z</time>
            </trkpt>
            <trkpt lon="101.472992" lat="14.606264">
                <ele>331.792114</ele>
                <time>2009-03-29T05:57:07Z</time>
            </trkpt>
            <trkpt lon="101.473602" lat="14.606996">
                <ele>332.753540</ele>
                <time>2009-03-29T05:57:26Z</time>
            </trkpt>
            <trkpt lon="101.474300" lat="14.607812">
                <ele>332.272827</ele>
                <time>2009-03-29T05:57:45Z</time>
            </trkpt>
            <trkpt lon="101.475033" lat="14.608658">
                <ele>333.234131</ele>
                <time>2009-03-29T05:58:05Z</time>
            </trkpt>
            <trkpt lon="101.475863" lat="14.609394">
                <ele>333.714722</ele>
                <time>2009-03-29T05:58:26Z</time>
            </trkpt>
            <trkpt lon="101.476720" lat="14.610007">
                <ele>335.156738</ele>
                <time>2009-03-29T05:58:46Z</time>
            </trkpt>
            <trkpt lon="101.477650" lat="14.610660">
                <ele>335.156738</ele>
                <time>2009-03-29T05:59:07Z</time>
            </trkpt>
            <trkpt lon="101.477967" lat="14.610877">
                <ele>335.637329</ele>
                <time>2009-03-29T05:59:14Z</time>
            </trkpt>
            <trkpt lon="101.478270" lat="14.610994">
                <ele>336.118164</ele>
                <time>2009-03-29T05:59:20Z</time>
            </trkpt>
            <trkpt lon="101.478481" lat="14.610987">
                <ele>336.118164</ele>
                <time>2009-03-29T05:59:24Z</time>
            </trkpt>
            <trkpt lon="101.479265" lat="14.610796">
                <ele>336.118164</ele>
                <time>2009-03-29T05:59:40Z</time>
            </trkpt>
            <trkpt lon="101.480286" lat="14.610557">
                <ele>336.598877</ele>
                <time>2009-03-29T06:00:02Z</time>
            </trkpt>
            <trkpt lon="101.481241" lat="14.610328">
                <ele>338.040772</ele>
                <time>2009-03-29T06:00:22Z</time>
            </trkpt>
            <trkpt lon="101.481593" lat="14.610231">
                <ele>338.040772</ele>
                <time>2009-03-29T06:00:30Z</time>
            </trkpt>
            <trkpt lon="101.481698" lat="14.609961">
                <ele>338.040772</ele>
                <time>2009-03-29T06:00:37Z</time>
            </trkpt>
            <trkpt lon="101.481355" lat="14.608605">
                <ele>337.079468</ele>
                <time>2009-03-29T06:01:02Z</time>
            </trkpt>
            <trkpt lon="101.481010" lat="14.607281">
                <ele>337.079468</ele>
                <time>2009-03-29T06:01:25Z</time>
            </trkpt>
            <trkpt lon="101.480692" lat="14.606039">
                <ele>337.079468</ele>
                <time>2009-03-29T06:01:47Z</time>
            </trkpt>
            <trkpt lon="101.480377" lat="14.604789">
                <ele>338.040772</ele>
                <time>2009-03-29T06:02:10Z</time>
            </trkpt>
            <trkpt lon="101.480175" lat="14.604018">
                <ele>339.482666</ele>
                <time>2009-03-29T06:02:24Z</time>
            </trkpt>
            <trkpt lon="101.480143" lat="14.603814">
                <ele>339.002075</ele>
                <time>2009-03-29T06:02:28Z</time>
            </trkpt>
            <trkpt lon="101.480302" lat="14.603649">
                <ele>339.482666</ele>
                <time>2009-03-29T06:02:34Z</time>
            </trkpt>
            <trkpt lon="101.481077" lat="14.603475">
                <ele>340.444092</ele>
                <time>2009-03-29T06:02:50Z</time>
            </trkpt>
            <trkpt lon="101.481879" lat="14.603279">
                <ele>340.924683</ele>
                <time>2009-03-29T06:03:06Z</time>
            </trkpt>
            <trkpt lon="101.482781" lat="14.603063">
                <ele>342.366699</ele>
                <time>2009-03-29T06:03:27Z</time>
            </trkpt>
            <trkpt lon="101.483050" lat="14.602999">
                <ele>343.327881</ele>
                <time>2009-03-29T06:03:34Z</time>
            </trkpt>
            <trkpt lon="101.483293" lat="14.602941">
                <ele>343.327881</ele>
                <time>2009-03-29T06:03:40Z</time>
            </trkpt>
            <trkpt lon="101.484185" lat="14.602720">
                <ele>343.327881</ele>
                <time>2009-03-29T06:03:59Z</time>
            </trkpt>
            <trkpt lon="101.484907" lat="14.602541">
                <ele>344.770019</ele>
                <time>2009-03-29T06:04:16Z</time>
            </trkpt>
            <trkpt lon="101.485572" lat="14.602368">
                <ele>347.173218</ele>
                <time>2009-03-29T06:04:35Z</time>
            </trkpt>
            <trkpt lon="101.486163" lat="14.602230">
                <ele>348.134644</ele>
                <time>2009-03-29T06:04:52Z</time>
            </trkpt>
            <trkpt lon="101.486982" lat="14.602028">
                <ele>349.576538</ele>
                <time>2009-03-29T06:05:13Z</time>
            </trkpt>
            <trkpt lon="101.487679" lat="14.601856">
                <ele>351.979858</ele>
                <time>2009-03-29T06:05:31Z</time>
            </trkpt>
            <trkpt lon="101.488381" lat="14.601695">
                <ele>353.902588</ele>
                <time>2009-03-29T06:05:49Z</time>
            </trkpt>
            <trkpt lon="101.489304" lat="14.601477">
                <ele>356.305786</ele>
                <time>2009-03-29T06:06:13Z</time>
            </trkpt>
            <trkpt lon="101.490137" lat="14.601275">
                <ele>358.228394</ele>
                <time>2009-03-29T06:06:34Z</time>
            </trkpt>
            <trkpt lon="101.490796" lat="14.601116">
                <ele>360.631714</ele>
                <time>2009-03-29T06:06:51Z</time>
            </trkpt>
            <trkpt lon="101.491536" lat="14.600938">
                <ele>363.035034</ele>
                <time>2009-03-29T06:07:12Z</time>
            </trkpt>
            <trkpt lon="101.491958" lat="14.600749">
                <ele>364.957642</ele>
                <time>2009-03-29T06:07:26Z</time>
            </trkpt>
            <trkpt lon="101.491828" lat="14.600187">
                <ele>365.438355</ele>
                <time>2009-03-29T06:07:44Z</time>
            </trkpt>
            <trkpt lon="101.491646" lat="14.599323">
                <ele>362.554321</ele>
                <time>2009-03-29T06:08:03Z</time>
            </trkpt>
            <trkpt lon="101.491646" lat="14.599282">
                <ele>362.554321</ele>
                <time>2009-03-29T06:08:04Z</time>
            </trkpt>
            <trkpt lon="101.491622" lat="14.599210">
                <ele>362.073731</ele>
                <time>2009-03-29T06:08:07Z</time>
            </trkpt>
        </trkseg>
    </trk>
</gpx>